<?xml version="1.0" encoding="UTF-8" standalone="no" ?>
<gpx xmlns="http://www.topografix.com/GPX/1/1" xmlns:xsi="http://www.w3.org/2001/XMLSchema-instance" xsi:schemaLocation="http://www.topografix.com/GPX/1/1 http://www.topografix.com/GPX/1/1/gpx.xsd" version="1.1" creator="VisuGPX - https://www.visugpx.com">
  <metadata>
    <name>Les Hameaux de St Jean de Pourcharesse</name>
    <desc><![CDATA[Boucle dans le patrimoine Cévenol paysan et forestier. ]]></desc>
  </metadata>
  <trk>
    <name><![CDATA[15139998-2022 05 08 Les Hameaux de St Jean ]]></name>
    <extensions>
      <line xmlns="http://www.topografix.com/GPX/gpx_style/0/2">
        <color>0000FF</color>
        <width>4</width>
      </line>
    </extensions>
    <trkseg>
      <trkpt lat="44.4878" lon="4.10429">
        <ele>604</ele>
        <time>2022-08-27T12:17:25Z</time>
      </trkpt>
      <trkpt lat="44.48792" lon="4.1046">
        <ele>606</ele>
        <time>2022-08-27T12:17:59Z</time>
      </trkpt>
      <trkpt lat="44.48793" lon="4.10455">
        <ele>607</ele>
        <time>2022-08-27T12:18:04Z</time>
      </trkpt>
      <trkpt lat="44.48786" lon="4.10418">
        <ele>607</ele>
        <time>2022-08-27T12:18:40Z</time>
      </trkpt>
      <trkpt lat="44.48786" lon="4.1038">
        <ele>606</ele>
        <time>2022-08-27T12:19:16Z</time>
      </trkpt>
      <trkpt lat="44.4879" lon="4.10352">
        <ele>606</ele>
        <time>2022-08-27T12:19:43Z</time>
      </trkpt>
      <trkpt lat="44.48804" lon="4.10325">
        <ele>609</ele>
        <time>2022-08-27T12:20:15Z</time>
      </trkpt>
      <trkpt lat="44.48826" lon="4.10294">
        <ele>614</ele>
        <time>2022-08-27T12:20:57Z</time>
      </trkpt>
      <trkpt lat="44.48831" lon="4.10283">
        <ele>615</ele>
        <time>2022-08-27T12:21:09Z</time>
      </trkpt>
      <trkpt lat="44.48833" lon="4.10275">
        <ele>615</ele>
        <time>2022-08-27T12:21:17Z</time>
      </trkpt>
      <trkpt lat="44.48831" lon="4.10249">
        <ele>613</ele>
        <time>2022-08-27T12:21:42Z</time>
      </trkpt>
      <trkpt lat="44.48855" lon="4.10129">
        <ele>622</ele>
        <time>2022-08-27T12:23:41Z</time>
      </trkpt>
      <trkpt lat="44.48852" lon="4.10089">
        <ele>620</ele>
        <time>2022-08-27T12:24:19Z</time>
      </trkpt>
      <trkpt lat="44.48857" lon="4.10049">
        <ele>618</ele>
        <time>2022-08-27T12:24:58Z</time>
      </trkpt>
      <trkpt lat="44.48875" lon="4.09984">
        <ele>615</ele>
        <time>2022-08-27T12:26:04Z</time>
      </trkpt>
      <trkpt lat="44.48898" lon="4.09942">
        <ele>612</ele>
        <time>2022-08-27T12:26:54Z</time>
      </trkpt>
      <trkpt lat="44.48911" lon="4.09938">
        <ele>613</ele>
        <time>2022-08-27T12:27:12Z</time>
      </trkpt>
      <trkpt lat="44.48929" lon="4.09964">
        <ele>619</ele>
        <time>2022-08-27T12:27:47Z</time>
      </trkpt>
      <trkpt lat="44.48953" lon="4.09991">
        <ele>626</ele>
        <time>2022-08-27T12:28:28Z</time>
      </trkpt>
      <trkpt lat="44.48989" lon="4.10001">
        <ele>631</ele>
        <time>2022-08-27T12:29:17Z</time>
      </trkpt>
      <trkpt lat="44.49011" lon="4.09999">
        <ele>632</ele>
        <time>2022-08-27T12:29:46Z</time>
      </trkpt>
      <trkpt lat="44.49021" lon="4.09993">
        <ele>631</ele>
        <time>2022-08-27T12:30:01Z</time>
      </trkpt>
      <trkpt lat="44.49038" lon="4.09968">
        <ele>623</ele>
        <time>2022-08-27T12:30:34Z</time>
      </trkpt>
      <trkpt lat="44.49051" lon="4.09958">
        <ele>620</ele>
        <time>2022-08-27T12:30:53Z</time>
      </trkpt>
      <trkpt lat="44.49057" lon="4.09965">
        <ele>623</ele>
        <time>2022-08-27T12:31:04Z</time>
      </trkpt>
      <trkpt lat="44.49071" lon="4.09974">
        <ele>629</ele>
        <time>2022-08-27T12:31:24Z</time>
      </trkpt>
      <trkpt lat="44.49076" lon="4.09974">
        <ele>629</ele>
        <time>2022-08-27T12:31:31Z</time>
      </trkpt>
      <trkpt lat="44.49148" lon="4.09955">
        <ele>621</ele>
        <time>2022-08-27T12:33:09Z</time>
      </trkpt>
      <trkpt lat="44.49152" lon="4.09958">
        <ele>622</ele>
        <time>2022-08-27T12:33:15Z</time>
      </trkpt>
      <trkpt lat="44.4917" lon="4.09958">
        <ele>623</ele>
        <time>2022-08-27T12:33:39Z</time>
      </trkpt>
      <trkpt lat="44.49201" lon="4.09946">
        <ele>625</ele>
        <time>2022-08-27T12:34:22Z</time>
      </trkpt>
      <trkpt lat="44.49219" lon="4.09945">
        <ele>629</ele>
        <time>2022-08-27T12:34:46Z</time>
      </trkpt>
      <trkpt lat="44.49233" lon="4.09948">
        <ele>632</ele>
        <time>2022-08-27T12:35:05Z</time>
      </trkpt>
      <trkpt lat="44.49241" lon="4.09944">
        <ele>633</ele>
        <time>2022-08-27T12:35:16Z</time>
      </trkpt>
      <trkpt lat="44.49244" lon="4.09937">
        <ele>633</ele>
        <time>2022-08-27T12:35:24Z</time>
      </trkpt>
      <trkpt lat="44.49243" lon="4.09929">
        <ele>632</ele>
        <time>2022-08-27T12:35:32Z</time>
      </trkpt>
      <trkpt lat="44.49223" lon="4.09909">
        <ele>624</ele>
        <time>2022-08-27T12:36:04Z</time>
      </trkpt>
      <trkpt lat="44.49215" lon="4.09897">
        <ele>621</ele>
        <time>2022-08-27T12:36:20Z</time>
      </trkpt>
      <trkpt lat="44.4921" lon="4.09859">
        <ele>619</ele>
        <time>2022-08-27T12:36:57Z</time>
      </trkpt>
      <trkpt lat="44.49203" lon="4.09847">
        <ele>616</ele>
        <time>2022-08-27T12:37:12Z</time>
      </trkpt>
      <trkpt lat="44.49196" lon="4.09821">
        <ele>613</ele>
        <time>2022-08-27T12:37:38Z</time>
      </trkpt>
      <trkpt lat="44.49186" lon="4.09803">
        <ele>609</ele>
        <time>2022-08-27T12:38:00Z</time>
      </trkpt>
      <trkpt lat="44.49186" lon="4.09797">
        <ele>609</ele>
        <time>2022-08-27T12:38:05Z</time>
      </trkpt>
      <trkpt lat="44.49169" lon="4.09765">
        <ele>604</ele>
        <time>2022-08-27T12:38:43Z</time>
      </trkpt>
      <trkpt lat="44.49155" lon="4.09719">
        <ele>596</ele>
        <time>2022-08-27T12:39:31Z</time>
      </trkpt>
      <trkpt lat="44.49159" lon="4.09699">
        <ele>596</ele>
        <time>2022-08-27T12:39:51Z</time>
      </trkpt>
      <trkpt lat="44.49192" lon="4.0965">
        <ele>602</ele>
        <time>2022-08-27T12:40:55Z</time>
      </trkpt>
      <trkpt lat="44.49218" lon="4.09618">
        <ele>603</ele>
        <time>2022-08-27T12:41:41Z</time>
      </trkpt>
      <trkpt lat="44.49251" lon="4.09586">
        <ele>607</ele>
        <time>2022-08-27T12:42:35Z</time>
      </trkpt>
      <trkpt lat="44.4929" lon="4.0953">
        <ele>598</ele>
        <time>2022-08-27T12:43:49Z</time>
      </trkpt>
      <trkpt lat="44.49308" lon="4.09511">
        <ele>596</ele>
        <time>2022-08-27T12:44:19Z</time>
      </trkpt>
      <trkpt lat="44.4933" lon="4.095">
        <ele>598</ele>
        <time>2022-08-27T12:44:50Z</time>
      </trkpt>
      <trkpt lat="44.49348" lon="4.09509">
        <ele>603</ele>
        <time>2022-08-27T12:45:16Z</time>
      </trkpt>
      <trkpt lat="44.49365" lon="4.09513">
        <ele>606</ele>
        <time>2022-08-27T12:45:39Z</time>
      </trkpt>
      <trkpt lat="44.49376" lon="4.09507">
        <ele>604</ele>
        <time>2022-08-27T12:45:55Z</time>
      </trkpt>
      <trkpt lat="44.49404" lon="4.09509">
        <ele>607</ele>
        <time>2022-08-27T12:46:32Z</time>
      </trkpt>
      <trkpt lat="44.49423" lon="4.09493">
        <ele>603</ele>
        <time>2022-08-27T12:47:02Z</time>
      </trkpt>
      <trkpt lat="44.49433" lon="4.09488">
        <ele>604</ele>
        <time>2022-08-27T12:47:16Z</time>
      </trkpt>
      <trkpt lat="44.49436" lon="4.09482">
        <ele>602</ele>
        <time>2022-08-27T12:47:23Z</time>
      </trkpt>
      <trkpt lat="44.49445" lon="4.09479">
        <ele>604</ele>
        <time>2022-08-27T12:47:35Z</time>
      </trkpt>
      <trkpt lat="44.49466" lon="4.09458">
        <ele>602</ele>
        <time>2022-08-27T12:48:10Z</time>
      </trkpt>
      <trkpt lat="44.49475" lon="4.09455">
        <ele>604</ele>
        <time>2022-08-27T12:48:22Z</time>
      </trkpt>
      <trkpt lat="44.49499" lon="4.0942">
        <ele>600</ele>
        <time>2022-08-27T12:49:08Z</time>
      </trkpt>
      <trkpt lat="44.49515" lon="4.09367">
        <ele>595</ele>
        <time>2022-08-27T12:50:03Z</time>
      </trkpt>
      <trkpt lat="44.49523" lon="4.09361">
        <ele>596</ele>
        <time>2022-08-27T12:50:15Z</time>
      </trkpt>
      <trkpt lat="44.49554" lon="4.09347">
        <ele>602</ele>
        <time>2022-08-27T12:50:58Z</time>
      </trkpt>
      <trkpt lat="44.49558" lon="4.09342">
        <ele>602</ele>
        <time>2022-08-27T12:51:06Z</time>
      </trkpt>
      <trkpt lat="44.49563" lon="4.09315">
        <ele>603</ele>
        <time>2022-08-27T12:51:32Z</time>
      </trkpt>
      <trkpt lat="44.49579" lon="4.09286">
        <ele>606</ele>
        <time>2022-08-27T12:52:07Z</time>
      </trkpt>
      <trkpt lat="44.49599" lon="4.09257">
        <ele>608</ele>
        <time>2022-08-27T12:52:45Z</time>
      </trkpt>
      <trkpt lat="44.49612" lon="4.09252">
        <ele>610</ele>
        <time>2022-08-27T12:53:03Z</time>
      </trkpt>
      <trkpt lat="44.49612" lon="4.0926">
        <ele>610</ele>
        <time>2022-08-27T12:53:11Z</time>
      </trkpt>
      <trkpt lat="44.49616" lon="4.09264">
        <ele>611</ele>
        <time>2022-08-27T12:53:18Z</time>
      </trkpt>
      <trkpt lat="44.49622" lon="4.09252">
        <ele>612</ele>
        <time>2022-08-27T12:53:32Z</time>
      </trkpt>
      <trkpt lat="44.49618" lon="4.09247">
        <ele>612</ele>
        <time>2022-08-27T12:53:39Z</time>
      </trkpt>
      <trkpt lat="44.49616" lon="4.09255">
        <ele>611</ele>
        <time>2022-08-27T12:53:47Z</time>
      </trkpt>
      <trkpt lat="44.4961" lon="4.0925">
        <ele>609</ele>
        <time>2022-08-27T12:53:56Z</time>
      </trkpt>
      <trkpt lat="44.49605" lon="4.09252">
        <ele>609</ele>
        <time>2022-08-27T12:54:03Z</time>
      </trkpt>
      <trkpt lat="44.49594" lon="4.09248">
        <ele>607</ele>
        <time>2022-08-27T12:54:18Z</time>
      </trkpt>
      <trkpt lat="44.49597" lon="4.09242">
        <ele>610</ele>
        <time>2022-08-27T12:54:25Z</time>
      </trkpt>
      <trkpt lat="44.4958" lon="4.09237">
        <ele>609</ele>
        <time>2022-08-27T12:54:48Z</time>
      </trkpt>
      <trkpt lat="44.49561" lon="4.09228">
        <ele>612</ele>
        <time>2022-08-27T12:55:15Z</time>
      </trkpt>
      <trkpt lat="44.49557" lon="4.09229">
        <ele>611</ele>
        <time>2022-08-27T12:55:21Z</time>
      </trkpt>
      <trkpt lat="44.49547" lon="4.09223">
        <ele>613</ele>
        <time>2022-08-27T12:55:35Z</time>
      </trkpt>
      <trkpt lat="44.49537" lon="4.09225">
        <ele>613</ele>
        <time>2022-08-27T12:55:49Z</time>
      </trkpt>
      <trkpt lat="44.49523" lon="4.09224">
        <ele>613</ele>
        <time>2022-08-27T12:56:07Z</time>
      </trkpt>
      <trkpt lat="44.49512" lon="4.09218">
        <ele>615</ele>
        <time>2022-08-27T12:56:23Z</time>
      </trkpt>
      <trkpt lat="44.49491" lon="4.09219">
        <ele>614</ele>
        <time>2022-08-27T12:56:51Z</time>
      </trkpt>
      <trkpt lat="44.49485" lon="4.09217">
        <ele>613</ele>
        <time>2022-08-27T12:56:59Z</time>
      </trkpt>
      <trkpt lat="44.49475" lon="4.09204">
        <ele>616</ele>
        <time>2022-08-27T12:57:17Z</time>
      </trkpt>
      <trkpt lat="44.49471" lon="4.09198">
        <ele>618</ele>
        <time>2022-08-27T12:57:25Z</time>
      </trkpt>
      <trkpt lat="44.49467" lon="4.09168">
        <ele>627</ele>
        <time>2022-08-27T12:57:54Z</time>
      </trkpt>
      <trkpt lat="44.49458" lon="4.09144">
        <ele>632</ele>
        <time>2022-08-27T12:58:20Z</time>
      </trkpt>
      <trkpt lat="44.49459" lon="4.09138">
        <ele>634</ele>
        <time>2022-08-27T12:58:26Z</time>
      </trkpt>
      <trkpt lat="44.49447" lon="4.09126">
        <ele>635</ele>
        <time>2022-08-27T12:58:46Z</time>
      </trkpt>
      <trkpt lat="44.49443" lon="4.09113">
        <ele>637</ele>
        <time>2022-08-27T12:58:59Z</time>
      </trkpt>
      <trkpt lat="44.49439" lon="4.09111">
        <ele>637</ele>
        <time>2022-08-27T12:59:05Z</time>
      </trkpt>
      <trkpt lat="44.49432" lon="4.09079">
        <ele>644</ele>
        <time>2022-08-27T12:59:37Z</time>
      </trkpt>
      <trkpt lat="44.4942" lon="4.09051">
        <ele>646</ele>
        <time>2022-08-27T13:00:08Z</time>
      </trkpt>
      <trkpt lat="44.4942" lon="4.09042">
        <ele>648</ele>
        <time>2022-08-27T13:00:16Z</time>
      </trkpt>
      <trkpt lat="44.49416" lon="4.09028">
        <ele>649</ele>
        <time>2022-08-27T13:00:31Z</time>
      </trkpt>
      <trkpt lat="44.49395" lon="4.08993">
        <ele>650</ele>
        <time>2022-08-27T13:01:14Z</time>
      </trkpt>
      <trkpt lat="44.49375" lon="4.08965">
        <ele>649</ele>
        <time>2022-08-27T13:01:52Z</time>
      </trkpt>
      <trkpt lat="44.49363" lon="4.08958">
        <ele>646</ele>
        <time>2022-08-27T13:02:09Z</time>
      </trkpt>
      <trkpt lat="44.49352" lon="4.08936">
        <ele>645</ele>
        <time>2022-08-27T13:02:35Z</time>
      </trkpt>
      <trkpt lat="44.49331" lon="4.08909">
        <ele>641</ele>
        <time>2022-08-27T13:03:13Z</time>
      </trkpt>
      <trkpt lat="44.49322" lon="4.08886">
        <ele>640</ele>
        <time>2022-08-27T13:03:38Z</time>
      </trkpt>
      <trkpt lat="44.49314" lon="4.08873">
        <ele>637</ele>
        <time>2022-08-27T13:03:54Z</time>
      </trkpt>
      <trkpt lat="44.49302" lon="4.08838">
        <ele>635</ele>
        <time>2022-08-27T13:04:31Z</time>
      </trkpt>
      <trkpt lat="44.49302" lon="4.08862">
        <ele>632</ele>
        <time>2022-08-27T13:04:54Z</time>
      </trkpt>
      <trkpt lat="44.49285" lon="4.08845">
        <ele>625</ele>
        <time>2022-08-27T13:05:22Z</time>
      </trkpt>
      <trkpt lat="44.49267" lon="4.08814">
        <ele>617</ele>
        <time>2022-08-27T13:06:00Z</time>
      </trkpt>
      <trkpt lat="44.49256" lon="4.08806">
        <ele>611</ele>
        <time>2022-08-27T13:06:16Z</time>
      </trkpt>
      <trkpt lat="44.4925" lon="4.08783">
        <ele>609</ele>
        <time>2022-08-27T13:06:40Z</time>
      </trkpt>
      <trkpt lat="44.49249" lon="4.08755">
        <ele>611</ele>
        <time>2022-08-27T13:07:06Z</time>
      </trkpt>
      <trkpt lat="44.49237" lon="4.08719">
        <ele>618</ele>
        <time>2022-08-27T13:07:44Z</time>
      </trkpt>
      <trkpt lat="44.49237" lon="4.08702">
        <ele>620</ele>
        <time>2022-08-27T13:08:00Z</time>
      </trkpt>
      <trkpt lat="44.49238" lon="4.0873">
        <ele>616</ele>
        <time>2022-08-27T13:08:27Z</time>
      </trkpt>
      <trkpt lat="44.49234" lon="4.08735">
        <ele>617</ele>
        <time>2022-08-27T13:08:34Z</time>
      </trkpt>
      <trkpt lat="44.49236" lon="4.08742">
        <ele>615</ele>
        <time>2022-08-27T13:08:41Z</time>
      </trkpt>
      <trkpt lat="44.4923" lon="4.08768">
        <ele>614</ele>
        <time>2022-08-27T13:09:08Z</time>
      </trkpt>
      <trkpt lat="44.49211" lon="4.08795">
        <ele>614</ele>
        <time>2022-08-27T13:09:44Z</time>
      </trkpt>
      <trkpt lat="44.49211" lon="4.08803">
        <ele>613</ele>
        <time>2022-08-27T13:09:51Z</time>
      </trkpt>
      <trkpt lat="44.49203" lon="4.08813">
        <ele>613</ele>
        <time>2022-08-27T13:10:06Z</time>
      </trkpt>
      <trkpt lat="44.49199" lon="4.0883">
        <ele>610</ele>
        <time>2022-08-27T13:10:23Z</time>
      </trkpt>
      <trkpt lat="44.49196" lon="4.08881">
        <ele>605</ele>
        <time>2022-08-27T13:11:11Z</time>
      </trkpt>
      <trkpt lat="44.49199" lon="4.08889">
        <ele>604</ele>
        <time>2022-08-27T13:11:20Z</time>
      </trkpt>
      <trkpt lat="44.49194" lon="4.08911">
        <ele>601</ele>
        <time>2022-08-27T13:11:42Z</time>
      </trkpt>
      <trkpt lat="44.49196" lon="4.08923">
        <ele>600</ele>
        <time>2022-08-27T13:11:54Z</time>
      </trkpt>
      <trkpt lat="44.49195" lon="4.08936">
        <ele>597</ele>
        <time>2022-08-27T13:12:06Z</time>
      </trkpt>
      <trkpt lat="44.49169" lon="4.08979">
        <ele>588</ele>
        <time>2022-08-27T13:13:00Z</time>
      </trkpt>
      <trkpt lat="44.49168" lon="4.08986">
        <ele>586</ele>
        <time>2022-08-27T13:13:07Z</time>
      </trkpt>
      <trkpt lat="44.49158" lon="4.08999">
        <ele>589</ele>
        <time>2022-08-27T13:13:25Z</time>
      </trkpt>
      <trkpt lat="44.49152" lon="4.09002">
        <ele>593</ele>
        <time>2022-08-27T13:13:33Z</time>
      </trkpt>
      <trkpt lat="44.49148" lon="4.09015">
        <ele>592</ele>
        <time>2022-08-27T13:13:47Z</time>
      </trkpt>
      <trkpt lat="44.49139" lon="4.09031">
        <ele>594</ele>
        <time>2022-08-27T13:14:06Z</time>
      </trkpt>
      <trkpt lat="44.49138" lon="4.0905">
        <ele>590</ele>
        <time>2022-08-27T13:14:24Z</time>
      </trkpt>
      <trkpt lat="44.49131" lon="4.09056">
        <ele>593</ele>
        <time>2022-08-27T13:14:35Z</time>
      </trkpt>
      <trkpt lat="44.49121" lon="4.09059">
        <ele>597</ele>
        <time>2022-08-27T13:14:49Z</time>
      </trkpt>
      <trkpt lat="44.49106" lon="4.09095">
        <ele>594</ele>
        <time>2022-08-27T13:15:28Z</time>
      </trkpt>
      <trkpt lat="44.49107" lon="4.09105">
        <ele>591</ele>
        <time>2022-08-27T13:15:38Z</time>
      </trkpt>
      <trkpt lat="44.49098" lon="4.09129">
        <ele>588</ele>
        <time>2022-08-27T13:16:04Z</time>
      </trkpt>
      <trkpt lat="44.49086" lon="4.0914">
        <ele>589</ele>
        <time>2022-08-27T13:16:23Z</time>
      </trkpt>
      <trkpt lat="44.49083" lon="4.09147">
        <ele>588</ele>
        <time>2022-08-27T13:16:31Z</time>
      </trkpt>
      <trkpt lat="44.4906" lon="4.09176">
        <ele>582</ele>
        <time>2022-08-27T13:17:12Z</time>
      </trkpt>
      <trkpt lat="44.49056" lon="4.0918">
        <ele>581</ele>
        <time>2022-08-27T13:17:19Z</time>
      </trkpt>
      <trkpt lat="44.49047" lon="4.09183">
        <ele>582</ele>
        <time>2022-08-27T13:17:31Z</time>
      </trkpt>
      <trkpt lat="44.4905" lon="4.09189">
        <ele>579</ele>
        <time>2022-08-27T13:17:38Z</time>
      </trkpt>
      <trkpt lat="44.49034" lon="4.09191">
        <ele>582</ele>
        <time>2022-08-27T13:17:59Z</time>
      </trkpt>
      <trkpt lat="44.49026" lon="4.09197">
        <ele>581</ele>
        <time>2022-08-27T13:18:12Z</time>
      </trkpt>
      <trkpt lat="44.49023" lon="4.09192">
        <ele>583</ele>
        <time>2022-08-27T13:18:18Z</time>
      </trkpt>
      <trkpt lat="44.49011" lon="4.09197">
        <ele>584</ele>
        <time>2022-08-27T13:18:34Z</time>
      </trkpt>
      <trkpt lat="44.49006" lon="4.09196">
        <ele>585</ele>
        <time>2022-08-27T13:18:41Z</time>
      </trkpt>
      <trkpt lat="44.49001" lon="4.092">
        <ele>585</ele>
        <time>2022-08-27T13:18:49Z</time>
      </trkpt>
      <trkpt lat="44.48994" lon="4.092">
        <ele>584</ele>
        <time>2022-08-27T13:18:58Z</time>
      </trkpt>
      <trkpt lat="44.48983" lon="4.09207">
        <ele>581</ele>
        <time>2022-08-27T13:19:14Z</time>
      </trkpt>
      <trkpt lat="44.48978" lon="4.09205">
        <ele>581</ele>
        <time>2022-08-27T13:19:21Z</time>
      </trkpt>
      <trkpt lat="44.48958" lon="4.0921">
        <ele>577</ele>
        <time>2022-08-27T13:19:48Z</time>
      </trkpt>
      <trkpt lat="44.48938" lon="4.09196">
        <ele>580</ele>
        <time>2022-08-27T13:20:18Z</time>
      </trkpt>
      <trkpt lat="44.48915" lon="4.09187">
        <ele>581</ele>
        <time>2022-08-27T13:20:50Z</time>
      </trkpt>
      <trkpt lat="44.4891" lon="4.09196">
        <ele>577</ele>
        <time>2022-08-27T13:21:01Z</time>
      </trkpt>
      <trkpt lat="44.48905" lon="4.09194">
        <ele>578</ele>
        <time>2022-08-27T13:21:08Z</time>
      </trkpt>
      <trkpt lat="44.48893" lon="4.09197">
        <ele>575</ele>
        <time>2022-08-27T13:21:24Z</time>
      </trkpt>
      <trkpt lat="44.48877" lon="4.09197">
        <ele>573</ele>
        <time>2022-08-27T13:21:45Z</time>
      </trkpt>
      <trkpt lat="44.48855" lon="4.09202">
        <ele>569</ele>
        <time>2022-08-27T13:22:15Z</time>
      </trkpt>
      <trkpt lat="44.48828" lon="4.0922">
        <ele>559</ele>
        <time>2022-08-27T13:22:55Z</time>
      </trkpt>
      <trkpt lat="44.48822" lon="4.09227">
        <ele>556</ele>
        <time>2022-08-27T13:23:06Z</time>
      </trkpt>
      <trkpt lat="44.48804" lon="4.09233">
        <ele>550</ele>
        <time>2022-08-27T13:23:30Z</time>
      </trkpt>
      <trkpt lat="44.48801" lon="4.09237">
        <ele>548</ele>
        <time>2022-08-27T13:23:36Z</time>
      </trkpt>
      <trkpt lat="44.4879" lon="4.09233">
        <ele>547</ele>
        <time>2022-08-27T13:23:51Z</time>
      </trkpt>
      <trkpt lat="44.48776" lon="4.0922">
        <ele>547</ele>
        <time>2022-08-27T13:24:13Z</time>
      </trkpt>
      <trkpt lat="44.48775" lon="4.09208">
        <ele>550</ele>
        <time>2022-08-27T13:24:25Z</time>
      </trkpt>
      <trkpt lat="44.4878" lon="4.09208">
        <ele>551</ele>
        <time>2022-08-27T13:24:32Z</time>
      </trkpt>
      <trkpt lat="44.48778" lon="4.09216">
        <ele>549</ele>
        <time>2022-08-27T13:24:40Z</time>
      </trkpt>
      <trkpt lat="44.48778" lon="4.0921">
        <ele>550</ele>
        <time>2022-08-27T13:24:45Z</time>
      </trkpt>
      <trkpt lat="44.48785" lon="4.09211">
        <ele>552</ele>
        <time>2022-08-27T13:24:55Z</time>
      </trkpt>
      <trkpt lat="44.48784" lon="4.09203">
        <ele>554</ele>
        <time>2022-08-27T13:25:02Z</time>
      </trkpt>
      <trkpt lat="44.48785" lon="4.0921">
        <ele>552</ele>
        <time>2022-08-27T13:25:09Z</time>
      </trkpt>
      <trkpt lat="44.48775" lon="4.09202">
        <ele>552</ele>
        <time>2022-08-27T13:25:25Z</time>
      </trkpt>
      <trkpt lat="44.48782" lon="4.09196">
        <ele>555</ele>
        <time>2022-08-27T13:25:36Z</time>
      </trkpt>
      <trkpt lat="44.48787" lon="4.09198">
        <ele>556</ele>
        <time>2022-08-27T13:25:42Z</time>
      </trkpt>
      <trkpt lat="44.48784" lon="4.09205">
        <ele>553</ele>
        <time>2022-08-27T13:25:50Z</time>
      </trkpt>
      <trkpt lat="44.48776" lon="4.09197">
        <ele>553</ele>
        <time>2022-08-27T13:26:03Z</time>
      </trkpt>
      <trkpt lat="44.48775" lon="4.0919">
        <ele>555</ele>
        <time>2022-08-27T13:26:10Z</time>
      </trkpt>
      <trkpt lat="44.48771" lon="4.09185">
        <ele>555</ele>
        <time>2022-08-27T13:26:17Z</time>
      </trkpt>
      <trkpt lat="44.48759" lon="4.09154">
        <ele>558</ele>
        <time>2022-08-27T13:26:51Z</time>
      </trkpt>
      <trkpt lat="44.48762" lon="4.09154">
        <ele>559</ele>
        <time>2022-08-27T13:26:55Z</time>
      </trkpt>
      <trkpt lat="44.48757" lon="4.0912">
        <ele>561</ele>
        <time>2022-08-27T13:27:28Z</time>
      </trkpt>
      <trkpt lat="44.48755" lon="4.09084">
        <ele>565</ele>
        <time>2022-08-27T13:28:02Z</time>
      </trkpt>
      <trkpt lat="44.48757" lon="4.09077">
        <ele>567</ele>
        <time>2022-08-27T13:28:09Z</time>
      </trkpt>
      <trkpt lat="44.4875" lon="4.08996">
        <ele>575</ele>
        <time>2022-08-27T13:29:27Z</time>
      </trkpt>
      <trkpt lat="44.48723" lon="4.08943">
        <ele>589</ele>
        <time>2022-08-27T13:30:29Z</time>
      </trkpt>
      <trkpt lat="44.48719" lon="4.08939">
        <ele>590</ele>
        <time>2022-08-27T13:30:36Z</time>
      </trkpt>
      <trkpt lat="44.48713" lon="4.08939">
        <ele>591</ele>
        <time>2022-08-27T13:30:44Z</time>
      </trkpt>
      <trkpt lat="44.48708" lon="4.08947">
        <ele>589</ele>
        <time>2022-08-27T13:30:54Z</time>
      </trkpt>
      <trkpt lat="44.48707" lon="4.08993">
        <ele>580</ele>
        <time>2022-08-27T13:31:38Z</time>
      </trkpt>
      <trkpt lat="44.48694" lon="4.09019">
        <ele>575</ele>
        <time>2022-08-27T13:32:08Z</time>
      </trkpt>
      <trkpt lat="44.48683" lon="4.09034">
        <ele>571</ele>
        <time>2022-08-27T13:32:28Z</time>
      </trkpt>
      <trkpt lat="44.48632" lon="4.09057">
        <ele>571</ele>
        <time>2022-08-27T13:33:40Z</time>
      </trkpt>
      <trkpt lat="44.48619" lon="4.09061">
        <ele>573</ele>
        <time>2022-08-27T13:33:58Z</time>
      </trkpt>
      <trkpt lat="44.48596" lon="4.09061">
        <ele>577</ele>
        <time>2022-08-27T13:34:28Z</time>
      </trkpt>
      <trkpt lat="44.48582" lon="4.09067">
        <ele>578</ele>
        <time>2022-08-27T13:34:48Z</time>
      </trkpt>
      <trkpt lat="44.48562" lon="4.0907">
        <ele>580</ele>
        <time>2022-08-27T13:35:15Z</time>
      </trkpt>
      <trkpt lat="44.48535" lon="4.09085">
        <ele>580</ele>
        <time>2022-08-27T13:35:53Z</time>
      </trkpt>
      <trkpt lat="44.48525" lon="4.09083">
        <ele>582</ele>
        <time>2022-08-27T13:36:07Z</time>
      </trkpt>
      <trkpt lat="44.48511" lon="4.09092">
        <ele>582</ele>
        <time>2022-08-27T13:36:27Z</time>
      </trkpt>
      <trkpt lat="44.48502" lon="4.09093">
        <ele>583</ele>
        <time>2022-08-27T13:36:40Z</time>
      </trkpt>
      <trkpt lat="44.48497" lon="4.09096">
        <ele>583</ele>
        <time>2022-08-27T13:36:47Z</time>
      </trkpt>
      <trkpt lat="44.48492" lon="4.09095">
        <ele>584</ele>
        <time>2022-08-27T13:36:54Z</time>
      </trkpt>
      <trkpt lat="44.48457" lon="4.09118">
        <ele>583</ele>
        <time>2022-08-27T13:37:45Z</time>
      </trkpt>
      <trkpt lat="44.48446" lon="4.09119">
        <ele>584</ele>
        <time>2022-08-27T13:38:00Z</time>
      </trkpt>
      <trkpt lat="44.48443" lon="4.09123">
        <ele>583</ele>
        <time>2022-08-27T13:38:05Z</time>
      </trkpt>
      <trkpt lat="44.48433" lon="4.09124">
        <ele>584</ele>
        <time>2022-08-27T13:38:19Z</time>
      </trkpt>
      <trkpt lat="44.48425" lon="4.09128">
        <ele>584</ele>
        <time>2022-08-27T13:38:30Z</time>
      </trkpt>
      <trkpt lat="44.48404" lon="4.09128">
        <ele>586</ele>
        <time>2022-08-27T13:38:58Z</time>
      </trkpt>
      <trkpt lat="44.4839" lon="4.09135">
        <ele>586</ele>
        <time>2022-08-27T13:39:18Z</time>
      </trkpt>
      <trkpt lat="44.48378" lon="4.09134">
        <ele>587</ele>
        <time>2022-08-27T13:39:34Z</time>
      </trkpt>
      <trkpt lat="44.48366" lon="4.09137">
        <ele>588</ele>
        <time>2022-08-27T13:39:50Z</time>
      </trkpt>
      <trkpt lat="44.48361" lon="4.09135">
        <ele>589</ele>
        <time>2022-08-27T13:39:57Z</time>
      </trkpt>
      <trkpt lat="44.48357" lon="4.09139">
        <ele>588</ele>
        <time>2022-08-27T13:40:04Z</time>
      </trkpt>
      <trkpt lat="44.48347" lon="4.09131">
        <ele>592</ele>
        <time>2022-08-27T13:40:19Z</time>
      </trkpt>
      <trkpt lat="44.48333" lon="4.09139">
        <ele>590</ele>
        <time>2022-08-27T13:40:39Z</time>
      </trkpt>
      <trkpt lat="44.4832" lon="4.09132">
        <ele>596</ele>
        <time>2022-08-27T13:40:58Z</time>
      </trkpt>
      <trkpt lat="44.48313" lon="4.09133">
        <ele>597</ele>
        <time>2022-08-27T13:41:07Z</time>
      </trkpt>
      <trkpt lat="44.48309" lon="4.0913">
        <ele>598</ele>
        <time>2022-08-27T13:41:13Z</time>
      </trkpt>
      <trkpt lat="44.48294" lon="4.09128">
        <ele>602</ele>
        <time>2022-08-27T13:41:33Z</time>
      </trkpt>
      <trkpt lat="44.48271" lon="4.09133">
        <ele>605</ele>
        <time>2022-08-27T13:42:04Z</time>
      </trkpt>
      <trkpt lat="44.48255" lon="4.0914">
        <ele>606</ele>
        <time>2022-08-27T13:42:27Z</time>
      </trkpt>
      <trkpt lat="44.48238" lon="4.09163">
        <ele>600</ele>
        <time>2022-08-27T13:42:58Z</time>
      </trkpt>
      <trkpt lat="44.48216" lon="4.09185">
        <ele>596</ele>
        <time>2022-08-27T13:43:34Z</time>
      </trkpt>
      <trkpt lat="44.48197" lon="4.09186">
        <ele>598</ele>
        <time>2022-08-27T13:44:00Z</time>
      </trkpt>
      <trkpt lat="44.48184" lon="4.09181">
        <ele>600</ele>
        <time>2022-08-27T13:44:18Z</time>
      </trkpt>
      <trkpt lat="44.48161" lon="4.09164">
        <ele>605</ele>
        <time>2022-08-27T13:44:52Z</time>
      </trkpt>
      <trkpt lat="44.48131" lon="4.09168">
        <ele>596</ele>
        <time>2022-08-27T13:45:33Z</time>
      </trkpt>
      <trkpt lat="44.48123" lon="4.09158">
        <ele>597</ele>
        <time>2022-08-27T13:45:47Z</time>
      </trkpt>
      <trkpt lat="44.48124" lon="4.09132">
        <ele>603</ele>
        <time>2022-08-27T13:46:12Z</time>
      </trkpt>
      <trkpt lat="44.48116" lon="4.09099">
        <ele>609</ele>
        <time>2022-08-27T13:46:45Z</time>
      </trkpt>
      <trkpt lat="44.48103" lon="4.09063">
        <ele>612</ele>
        <time>2022-08-27T13:47:23Z</time>
      </trkpt>
      <trkpt lat="44.48099" lon="4.09059">
        <ele>611</ele>
        <time>2022-08-27T13:47:30Z</time>
      </trkpt>
      <trkpt lat="44.48085" lon="4.09026">
        <ele>614</ele>
        <time>2022-08-27T13:48:07Z</time>
      </trkpt>
      <trkpt lat="44.48077" lon="4.09001">
        <ele>617</ele>
        <time>2022-08-27T13:48:33Z</time>
      </trkpt>
      <trkpt lat="44.48079" lon="4.08985">
        <ele>620</ele>
        <time>2022-08-27T13:48:48Z</time>
      </trkpt>
      <trkpt lat="44.48077" lon="4.08971">
        <ele>622</ele>
        <time>2022-08-27T13:49:02Z</time>
      </trkpt>
      <trkpt lat="44.48074" lon="4.08966">
        <ele>622</ele>
        <time>2022-08-27T13:49:08Z</time>
      </trkpt>
      <trkpt lat="44.48065" lon="4.08962">
        <ele>619</ele>
        <time>2022-08-27T13:49:20Z</time>
      </trkpt>
      <trkpt lat="44.4806" lon="4.08964">
        <ele>617</ele>
        <time>2022-08-27T13:49:27Z</time>
      </trkpt>
      <trkpt lat="44.48051" lon="4.08956">
        <ele>615</ele>
        <time>2022-08-27T13:49:42Z</time>
      </trkpt>
      <trkpt lat="44.48021" lon="4.08938">
        <ele>607</ele>
        <time>2022-08-27T13:50:25Z</time>
      </trkpt>
      <trkpt lat="44.48013" lon="4.08927">
        <ele>606</ele>
        <time>2022-08-27T13:50:40Z</time>
      </trkpt>
      <trkpt lat="44.48008" lon="4.08909">
        <ele>606</ele>
        <time>2022-08-27T13:50:59Z</time>
      </trkpt>
      <trkpt lat="44.48006" lon="4.08888">
        <ele>607</ele>
        <time>2022-08-27T13:51:19Z</time>
      </trkpt>
      <trkpt lat="44.48" lon="4.08871">
        <ele>606</ele>
        <time>2022-08-27T13:51:37Z</time>
      </trkpt>
      <trkpt lat="44.47999" lon="4.08835">
        <ele>610</ele>
        <time>2022-08-27T13:52:11Z</time>
      </trkpt>
      <trkpt lat="44.47991" lon="4.08818">
        <ele>610</ele>
        <time>2022-08-27T13:52:30Z</time>
      </trkpt>
      <trkpt lat="44.4799" lon="4.08826">
        <ele>609</ele>
        <time>2022-08-27T13:52:38Z</time>
      </trkpt>
      <trkpt lat="44.47986" lon="4.08828">
        <ele>607</ele>
        <time>2022-08-27T13:52:44Z</time>
      </trkpt>
      <trkpt lat="44.47976" lon="4.08813">
        <ele>608</ele>
        <time>2022-08-27T13:53:03Z</time>
      </trkpt>
      <trkpt lat="44.47977" lon="4.08799">
        <ele>611</ele>
        <time>2022-08-27T13:53:17Z</time>
      </trkpt>
      <trkpt lat="44.47972" lon="4.08796">
        <ele>611</ele>
        <time>2022-08-27T13:53:24Z</time>
      </trkpt>
      <trkpt lat="44.47968" lon="4.08804">
        <ele>609</ele>
        <time>2022-08-27T13:53:33Z</time>
      </trkpt>
      <trkpt lat="44.47963" lon="4.08806">
        <ele>607</ele>
        <time>2022-08-27T13:53:40Z</time>
      </trkpt>
      <trkpt lat="44.47957" lon="4.08814">
        <ele>604</ele>
        <time>2022-08-27T13:53:51Z</time>
      </trkpt>
      <trkpt lat="44.47946" lon="4.08822">
        <ele>599</ele>
        <time>2022-08-27T13:54:08Z</time>
      </trkpt>
      <trkpt lat="44.47932" lon="4.08823">
        <ele>596</ele>
        <time>2022-08-27T13:54:27Z</time>
      </trkpt>
      <trkpt lat="44.47922" lon="4.08822">
        <ele>594</ele>
        <time>2022-08-27T13:54:40Z</time>
      </trkpt>
      <trkpt lat="44.47918" lon="4.08818">
        <ele>595</ele>
        <time>2022-08-27T13:54:47Z</time>
      </trkpt>
      <trkpt lat="44.47911" lon="4.08819">
        <ele>595</ele>
        <time>2022-08-27T13:54:56Z</time>
      </trkpt>
      <trkpt lat="44.47906" lon="4.08817">
        <ele>597</ele>
        <time>2022-08-27T13:55:03Z</time>
      </trkpt>
      <trkpt lat="44.47902" lon="4.08819">
        <ele>597</ele>
        <time>2022-08-27T13:55:09Z</time>
      </trkpt>
      <trkpt lat="44.47895" lon="4.08816">
        <ele>599</ele>
        <time>2022-08-27T13:55:18Z</time>
      </trkpt>
      <trkpt lat="44.47889" lon="4.08809">
        <ele>603</ele>
        <time>2022-08-27T13:55:29Z</time>
      </trkpt>
      <trkpt lat="44.47874" lon="4.08805">
        <ele>606</ele>
        <time>2022-08-27T13:55:49Z</time>
      </trkpt>
      <trkpt lat="44.47865" lon="4.08798">
        <ele>610</ele>
        <time>2022-08-27T13:56:03Z</time>
      </trkpt>
      <trkpt lat="44.47861" lon="4.08802">
        <ele>609</ele>
        <time>2022-08-27T13:56:09Z</time>
      </trkpt>
      <trkpt lat="44.47869" lon="4.08832">
        <ele>599</ele>
        <time>2022-08-27T13:56:40Z</time>
      </trkpt>
      <trkpt lat="44.47865" lon="4.08837">
        <ele>599</ele>
        <time>2022-08-27T13:56:47Z</time>
      </trkpt>
      <trkpt lat="44.47867" lon="4.08844">
        <ele>597</ele>
        <time>2022-08-27T13:56:54Z</time>
      </trkpt>
      <trkpt lat="44.47859" lon="4.08847">
        <ele>598</ele>
        <time>2022-08-27T13:57:05Z</time>
      </trkpt>
      <trkpt lat="44.47854" lon="4.08846">
        <ele>600</ele>
        <time>2022-08-27T13:57:12Z</time>
      </trkpt>
      <trkpt lat="44.47855" lon="4.0884">
        <ele>601</ele>
        <time>2022-08-27T13:57:18Z</time>
      </trkpt>
      <trkpt lat="44.4785" lon="4.08839">
        <ele>602</ele>
        <time>2022-08-27T13:57:25Z</time>
      </trkpt>
      <trkpt lat="44.47845" lon="4.08849">
        <ele>601</ele>
        <time>2022-08-27T13:57:36Z</time>
      </trkpt>
      <trkpt lat="44.4784" lon="4.08848">
        <ele>602</ele>
        <time>2022-08-27T13:57:43Z</time>
      </trkpt>
      <trkpt lat="44.47835" lon="4.08855">
        <ele>602</ele>
        <time>2022-08-27T13:57:52Z</time>
      </trkpt>
      <trkpt lat="44.47821" lon="4.08855">
        <ele>608</ele>
        <time>2022-08-27T13:58:11Z</time>
      </trkpt>
      <trkpt lat="44.47817" lon="4.08859">
        <ele>610</ele>
        <time>2022-08-27T13:58:18Z</time>
      </trkpt>
      <trkpt lat="44.47812" lon="4.08855">
        <ele>613</ele>
        <time>2022-08-27T13:58:25Z</time>
      </trkpt>
      <trkpt lat="44.47808" lon="4.08863">
        <ele>613</ele>
        <time>2022-08-27T13:58:35Z</time>
      </trkpt>
      <trkpt lat="44.47799" lon="4.08864">
        <ele>617</ele>
        <time>2022-08-27T13:58:47Z</time>
      </trkpt>
      <trkpt lat="44.47796" lon="4.08872">
        <ele>616</ele>
        <time>2022-08-27T13:58:55Z</time>
      </trkpt>
      <trkpt lat="44.47791" lon="4.08872">
        <ele>619</ele>
        <time>2022-08-27T13:59:02Z</time>
      </trkpt>
      <trkpt lat="44.47788" lon="4.08866">
        <ele>621</ele>
        <time>2022-08-27T13:59:09Z</time>
      </trkpt>
      <trkpt lat="44.47793" lon="4.08852">
        <ele>623</ele>
        <time>2022-08-27T13:59:24Z</time>
      </trkpt>
      <trkpt lat="44.47802" lon="4.0884">
        <ele>621</ele>
        <time>2022-08-27T13:59:40Z</time>
      </trkpt>
      <trkpt lat="44.478" lon="4.08837">
        <ele>623</ele>
        <time>2022-08-27T13:59:44Z</time>
      </trkpt>
      <trkpt lat="44.4779" lon="4.08847">
        <ele>625</ele>
        <time>2022-08-27T14:00:01Z</time>
      </trkpt>
      <trkpt lat="44.47786" lon="4.08845">
        <ele>628</ele>
        <time>2022-08-27T14:00:06Z</time>
      </trkpt>
      <trkpt lat="44.47774" lon="4.0885">
        <ele>632</ele>
        <time>2022-08-27T14:00:23Z</time>
      </trkpt>
      <trkpt lat="44.47774" lon="4.08857">
        <ele>630</ele>
        <time>2022-08-27T14:00:30Z</time>
      </trkpt>
      <trkpt lat="44.47768" lon="4.08853">
        <ele>634</ele>
        <time>2022-08-27T14:00:39Z</time>
      </trkpt>
      <trkpt lat="44.47766" lon="4.08859">
        <ele>634</ele>
        <time>2022-08-27T14:00:45Z</time>
      </trkpt>
      <trkpt lat="44.4776" lon="4.08858">
        <ele>637</ele>
        <time>2022-08-27T14:00:53Z</time>
      </trkpt>
      <trkpt lat="44.47755" lon="4.08865">
        <ele>637</ele>
        <time>2022-08-27T14:01:02Z</time>
      </trkpt>
      <trkpt lat="44.47747" lon="4.08866">
        <ele>640</ele>
        <time>2022-08-27T14:01:13Z</time>
      </trkpt>
      <trkpt lat="44.47736" lon="4.08877">
        <ele>642</ele>
        <time>2022-08-27T14:01:31Z</time>
      </trkpt>
      <trkpt lat="44.47731" lon="4.08875">
        <ele>645</ele>
        <time>2022-08-27T14:01:38Z</time>
      </trkpt>
      <trkpt lat="44.47728" lon="4.08881">
        <ele>645</ele>
        <time>2022-08-27T14:01:45Z</time>
      </trkpt>
      <trkpt lat="44.47719" lon="4.08889">
        <ele>647</ele>
        <time>2022-08-27T14:01:59Z</time>
      </trkpt>
      <trkpt lat="44.47712" lon="4.0889">
        <ele>650</ele>
        <time>2022-08-27T14:02:09Z</time>
      </trkpt>
      <trkpt lat="44.47702" lon="4.08899">
        <ele>652</ele>
        <time>2022-08-27T14:02:25Z</time>
      </trkpt>
      <trkpt lat="44.47699" lon="4.08913">
        <ele>651</ele>
        <time>2022-08-27T14:02:38Z</time>
      </trkpt>
      <trkpt lat="44.47691" lon="4.0892">
        <ele>653</ele>
        <time>2022-08-27T14:02:51Z</time>
      </trkpt>
      <trkpt lat="44.47689" lon="4.0893">
        <ele>653</ele>
        <time>2022-08-27T14:03:01Z</time>
      </trkpt>
      <trkpt lat="44.4768" lon="4.08935">
        <ele>657</ele>
        <time>2022-08-27T14:03:14Z</time>
      </trkpt>
      <trkpt lat="44.47673" lon="4.08945">
        <ele>659</ele>
        <time>2022-08-27T14:03:27Z</time>
      </trkpt>
      <trkpt lat="44.47664" lon="4.08947">
        <ele>663</ele>
        <time>2022-08-27T14:03:39Z</time>
      </trkpt>
      <trkpt lat="44.47657" lon="4.08969">
        <ele>662</ele>
        <time>2022-08-27T14:04:02Z</time>
      </trkpt>
      <trkpt lat="44.47653" lon="4.08972">
        <ele>663</ele>
        <time>2022-08-27T14:04:08Z</time>
      </trkpt>
      <trkpt lat="44.4765" lon="4.08979">
        <ele>663</ele>
        <time>2022-08-27T14:04:16Z</time>
      </trkpt>
      <trkpt lat="44.47643" lon="4.08983">
        <ele>665</ele>
        <time>2022-08-27T14:04:26Z</time>
      </trkpt>
      <trkpt lat="44.47637" lon="4.09029">
        <ele>662</ele>
        <time>2022-08-27T14:05:11Z</time>
      </trkpt>
      <trkpt lat="44.47643" lon="4.09043">
        <ele>659</ele>
        <time>2022-08-27T14:05:26Z</time>
      </trkpt>
      <trkpt lat="44.47644" lon="4.09058">
        <ele>658</ele>
        <time>2022-08-27T14:05:41Z</time>
      </trkpt>
      <trkpt lat="44.4764" lon="4.0907">
        <ele>658</ele>
        <time>2022-08-27T14:05:53Z</time>
      </trkpt>
      <trkpt lat="44.47625" lon="4.09079">
        <ele>661</ele>
        <time>2022-08-27T14:06:15Z</time>
      </trkpt>
      <trkpt lat="44.476" lon="4.09079">
        <ele>667</ele>
        <time>2022-08-27T14:06:48Z</time>
      </trkpt>
      <trkpt lat="44.47596" lon="4.09073">
        <ele>669</ele>
        <time>2022-08-27T14:06:56Z</time>
      </trkpt>
      <trkpt lat="44.4759" lon="4.09077">
        <ele>670</ele>
        <time>2022-08-27T14:07:05Z</time>
      </trkpt>
      <trkpt lat="44.47576" lon="4.09071">
        <ele>673</ele>
        <time>2022-08-27T14:07:25Z</time>
      </trkpt>
      <trkpt lat="44.47566" lon="4.09071">
        <ele>673</ele>
        <time>2022-08-27T14:07:38Z</time>
      </trkpt>
      <trkpt lat="44.47544" lon="4.09077">
        <ele>674</ele>
        <time>2022-08-27T14:08:08Z</time>
      </trkpt>
      <trkpt lat="44.47526" lon="4.09078">
        <ele>675</ele>
        <time>2022-08-27T14:08:32Z</time>
      </trkpt>
      <trkpt lat="44.47514" lon="4.09075">
        <ele>676</ele>
        <time>2022-08-27T14:08:48Z</time>
      </trkpt>
      <trkpt lat="44.47478" lon="4.09079">
        <ele>678</ele>
        <time>2022-08-27T14:09:36Z</time>
      </trkpt>
      <trkpt lat="44.47459" lon="4.09078">
        <ele>680</ele>
        <time>2022-08-27T14:10:02Z</time>
      </trkpt>
      <trkpt lat="44.47456" lon="4.09074">
        <ele>680</ele>
        <time>2022-08-27T14:10:07Z</time>
      </trkpt>
      <trkpt lat="44.47449" lon="4.09075">
        <ele>681</ele>
        <time>2022-08-27T14:10:17Z</time>
      </trkpt>
      <trkpt lat="44.47406" lon="4.09129">
        <ele>683</ele>
        <time>2022-08-27T14:11:34Z</time>
      </trkpt>
      <trkpt lat="44.474" lon="4.09159">
        <ele>683</ele>
        <time>2022-08-27T14:12:03Z</time>
      </trkpt>
      <trkpt lat="44.4741" lon="4.09214">
        <ele>684</ele>
        <time>2022-08-27T14:12:57Z</time>
      </trkpt>
      <trkpt lat="44.47425" lon="4.09248">
        <ele>684</ele>
        <time>2022-08-27T14:13:35Z</time>
      </trkpt>
      <trkpt lat="44.47446" lon="4.09286">
        <ele>684</ele>
        <time>2022-08-27T14:14:21Z</time>
      </trkpt>
      <trkpt lat="44.47462" lon="4.09334">
        <ele>684</ele>
        <time>2022-08-27T14:15:12Z</time>
      </trkpt>
      <trkpt lat="44.47463" lon="4.09343">
        <ele>684</ele>
        <time>2022-08-27T14:15:20Z</time>
      </trkpt>
      <trkpt lat="44.47489" lon="4.09395">
        <ele>684</ele>
        <time>2022-08-27T14:16:21Z</time>
      </trkpt>
      <trkpt lat="44.47514" lon="4.0942">
        <ele>684</ele>
        <time>2022-08-27T14:17:02Z</time>
      </trkpt>
      <trkpt lat="44.47523" lon="4.09439">
        <ele>684</ele>
        <time>2022-08-27T14:17:24Z</time>
      </trkpt>
      <trkpt lat="44.47537" lon="4.0952">
        <ele>685</ele>
        <time>2022-08-27T14:18:43Z</time>
      </trkpt>
      <trkpt lat="44.47534" lon="4.09558">
        <ele>683</ele>
        <time>2022-08-27T14:19:19Z</time>
      </trkpt>
      <trkpt lat="44.47536" lon="4.09592">
        <ele>682</ele>
        <time>2022-08-27T14:19:52Z</time>
      </trkpt>
      <trkpt lat="44.47527" lon="4.09632">
        <ele>678</ele>
        <time>2022-08-27T14:20:32Z</time>
      </trkpt>
      <trkpt lat="44.47522" lon="4.09642">
        <ele>678</ele>
        <time>2022-08-27T14:20:43Z</time>
      </trkpt>
      <trkpt lat="44.47522" lon="4.09648">
        <ele>677</ele>
        <time>2022-08-27T14:20:49Z</time>
      </trkpt>
      <trkpt lat="44.47501" lon="4.09692">
        <ele>676</ele>
        <time>2022-08-27T14:21:39Z</time>
      </trkpt>
      <trkpt lat="44.47498" lon="4.09708">
        <ele>674</ele>
        <time>2022-08-27T14:21:55Z</time>
      </trkpt>
      <trkpt lat="44.47471" lon="4.09755">
        <ele>666</ele>
        <time>2022-08-27T14:22:53Z</time>
      </trkpt>
      <trkpt lat="44.47459" lon="4.09789">
        <ele>662</ele>
        <time>2022-08-27T14:23:29Z</time>
      </trkpt>
      <trkpt lat="44.47437" lon="4.09819">
        <ele>659</ele>
        <time>2022-08-27T14:24:10Z</time>
      </trkpt>
      <trkpt lat="44.47434" lon="4.09829">
        <ele>659</ele>
        <time>2022-08-27T14:24:20Z</time>
      </trkpt>
      <trkpt lat="44.474" lon="4.09859">
        <ele>656</ele>
        <time>2022-08-27T14:25:14Z</time>
      </trkpt>
      <trkpt lat="44.47396" lon="4.09866">
        <ele>656</ele>
        <time>2022-08-27T14:25:22Z</time>
      </trkpt>
      <trkpt lat="44.4739" lon="4.09867">
        <ele>656</ele>
        <time>2022-08-27T14:25:30Z</time>
      </trkpt>
      <trkpt lat="44.47358" lon="4.09898">
        <ele>656</ele>
        <time>2022-08-27T14:26:22Z</time>
      </trkpt>
      <trkpt lat="44.47337" lon="4.09914">
        <ele>658</ele>
        <time>2022-08-27T14:26:54Z</time>
      </trkpt>
      <trkpt lat="44.47301" lon="4.09954">
        <ele>652</ele>
        <time>2022-08-27T14:27:55Z</time>
      </trkpt>
      <trkpt lat="44.4728" lon="4.09965">
        <ele>651</ele>
        <time>2022-08-27T14:28:25Z</time>
      </trkpt>
      <trkpt lat="44.47268" lon="4.09991">
        <ele>650</ele>
        <time>2022-08-27T14:28:55Z</time>
      </trkpt>
      <trkpt lat="44.47263" lon="4.10012">
        <ele>648</ele>
        <time>2022-08-27T14:29:16Z</time>
      </trkpt>
      <trkpt lat="44.47247" lon="4.10036">
        <ele>647</ele>
        <time>2022-08-27T14:29:47Z</time>
      </trkpt>
      <trkpt lat="44.47239" lon="4.1006">
        <ele>644</ele>
        <time>2022-08-27T14:30:12Z</time>
      </trkpt>
      <trkpt lat="44.47233" lon="4.10066">
        <ele>642</ele>
        <time>2022-08-27T14:30:22Z</time>
      </trkpt>
      <trkpt lat="44.4723" lon="4.10073">
        <ele>641</ele>
        <time>2022-08-27T14:30:30Z</time>
      </trkpt>
      <trkpt lat="44.47227" lon="4.10088">
        <ele>639</ele>
        <time>2022-08-27T14:30:45Z</time>
      </trkpt>
      <trkpt lat="44.47219" lon="4.101">
        <ele>637</ele>
        <time>2022-08-27T14:31:00Z</time>
      </trkpt>
      <trkpt lat="44.47215" lon="4.10118">
        <ele>634</ele>
        <time>2022-08-27T14:31:18Z</time>
      </trkpt>
      <trkpt lat="44.47206" lon="4.10132">
        <ele>631</ele>
        <time>2022-08-27T14:31:36Z</time>
      </trkpt>
      <trkpt lat="44.47202" lon="4.10143">
        <ele>630</ele>
        <time>2022-08-27T14:31:48Z</time>
      </trkpt>
      <trkpt lat="44.47184" lon="4.10159">
        <ele>628</ele>
        <time>2022-08-27T14:32:17Z</time>
      </trkpt>
      <trkpt lat="44.47165" lon="4.10192">
        <ele>625</ele>
        <time>2022-08-27T14:32:57Z</time>
      </trkpt>
      <trkpt lat="44.47152" lon="4.10223">
        <ele>617</ele>
        <time>2022-08-27T14:33:31Z</time>
      </trkpt>
      <trkpt lat="44.47152" lon="4.10229">
        <ele>617</ele>
        <time>2022-08-27T14:33:37Z</time>
      </trkpt>
      <trkpt lat="44.47146" lon="4.10242">
        <ele>614</ele>
        <time>2022-08-27T14:33:52Z</time>
      </trkpt>
      <trkpt lat="44.47147" lon="4.10248">
        <ele>614</ele>
        <time>2022-08-27T14:33:58Z</time>
      </trkpt>
      <trkpt lat="44.47142" lon="4.10257">
        <ele>611</ele>
        <time>2022-08-27T14:34:08Z</time>
      </trkpt>
      <trkpt lat="44.47146" lon="4.10273">
        <ele>611</ele>
        <time>2022-08-27T14:34:25Z</time>
      </trkpt>
      <trkpt lat="44.47143" lon="4.10353">
        <ele>600</ele>
        <time>2022-08-27T14:35:41Z</time>
      </trkpt>
      <trkpt lat="44.4714" lon="4.10359">
        <ele>598</ele>
        <time>2022-08-27T14:35:48Z</time>
      </trkpt>
      <trkpt lat="44.47141" lon="4.10397">
        <ele>591</ele>
        <time>2022-08-27T14:36:24Z</time>
      </trkpt>
      <trkpt lat="44.47124" lon="4.10437">
        <ele>577</ele>
        <time>2022-08-27T14:37:08Z</time>
      </trkpt>
      <trkpt lat="44.4712" lon="4.10459">
        <ele>571</ele>
        <time>2022-08-27T14:37:30Z</time>
      </trkpt>
      <trkpt lat="44.47115" lon="4.10466">
        <ele>569</ele>
        <time>2022-08-27T14:37:39Z</time>
      </trkpt>
      <trkpt lat="44.47116" lon="4.10475">
        <ele>567</ele>
        <time>2022-08-27T14:37:48Z</time>
      </trkpt>
      <trkpt lat="44.47123" lon="4.1048">
        <ele>567</ele>
        <time>2022-08-27T14:37:59Z</time>
      </trkpt>
      <trkpt lat="44.47129" lon="4.10479">
        <ele>568</ele>
        <time>2022-08-27T14:38:07Z</time>
      </trkpt>
      <trkpt lat="44.47139" lon="4.10487">
        <ele>568</ele>
        <time>2022-08-27T14:38:22Z</time>
      </trkpt>
      <trkpt lat="44.47164" lon="4.10496">
        <ele>569</ele>
        <time>2022-08-27T14:38:56Z</time>
      </trkpt>
      <trkpt lat="44.47181" lon="4.10505">
        <ele>564</ele>
        <time>2022-08-27T14:39:21Z</time>
      </trkpt>
      <trkpt lat="44.47187" lon="4.10504">
        <ele>563</ele>
        <time>2022-08-27T14:39:29Z</time>
      </trkpt>
      <trkpt lat="44.4719" lon="4.1051">
        <ele>560</ele>
        <time>2022-08-27T14:39:36Z</time>
      </trkpt>
      <trkpt lat="44.47199" lon="4.10515">
        <ele>557</ele>
        <time>2022-08-27T14:39:49Z</time>
      </trkpt>
      <trkpt lat="44.47214" lon="4.10529">
        <ele>550</ele>
        <time>2022-08-27T14:40:13Z</time>
      </trkpt>
      <trkpt lat="44.4723" lon="4.10556">
        <ele>540</ele>
        <time>2022-08-27T14:40:46Z</time>
      </trkpt>
      <trkpt lat="44.47241" lon="4.10585">
        <ele>531</ele>
        <time>2022-08-27T14:41:17Z</time>
      </trkpt>
      <trkpt lat="44.47245" lon="4.1059">
        <ele>529</ele>
        <time>2022-08-27T14:41:25Z</time>
      </trkpt>
      <trkpt lat="44.47241" lon="4.10598">
        <ele>528</ele>
        <time>2022-08-27T14:41:34Z</time>
      </trkpt>
      <trkpt lat="44.47252" lon="4.10616">
        <ele>523</ele>
        <time>2022-08-27T14:41:56Z</time>
      </trkpt>
      <trkpt lat="44.4725" lon="4.10623">
        <ele>522</ele>
        <time>2022-08-27T14:42:04Z</time>
      </trkpt>
      <trkpt lat="44.4726" lon="4.10636">
        <ele>518</ele>
        <time>2022-08-27T14:42:22Z</time>
      </trkpt>
      <trkpt lat="44.4726" lon="4.10646">
        <ele>516</ele>
        <time>2022-08-27T14:42:31Z</time>
      </trkpt>
      <trkpt lat="44.47265" lon="4.10662">
        <ele>512</ele>
        <time>2022-08-27T14:42:48Z</time>
      </trkpt>
      <trkpt lat="44.47266" lon="4.10699">
        <ele>504</ele>
        <time>2022-08-27T14:43:23Z</time>
      </trkpt>
      <trkpt lat="44.4728" lon="4.10726">
        <ele>496</ele>
        <time>2022-08-27T14:43:55Z</time>
      </trkpt>
      <trkpt lat="44.47279" lon="4.10749">
        <ele>492</ele>
        <time>2022-08-27T14:44:17Z</time>
      </trkpt>
      <trkpt lat="44.47283" lon="4.10765">
        <ele>488</ele>
        <time>2022-08-27T14:44:33Z</time>
      </trkpt>
      <trkpt lat="44.47291" lon="4.10782">
        <ele>483</ele>
        <time>2022-08-27T14:44:52Z</time>
      </trkpt>
      <trkpt lat="44.473" lon="4.10785">
        <ele>482</ele>
        <time>2022-08-27T14:45:05Z</time>
      </trkpt>
      <trkpt lat="44.47307" lon="4.10805">
        <ele>478</ele>
        <time>2022-08-27T14:45:26Z</time>
      </trkpt>
      <trkpt lat="44.47302" lon="4.10822">
        <ele>475</ele>
        <time>2022-08-27T14:45:44Z</time>
      </trkpt>
      <trkpt lat="44.47292" lon="4.10832">
        <ele>473</ele>
        <time>2022-08-27T14:46:00Z</time>
      </trkpt>
      <trkpt lat="44.47291" lon="4.10838">
        <ele>472</ele>
        <time>2022-08-27T14:46:06Z</time>
      </trkpt>
      <trkpt lat="44.47295" lon="4.10846">
        <ele>471</ele>
        <time>2022-08-27T14:46:15Z</time>
      </trkpt>
      <trkpt lat="44.47301" lon="4.10849">
        <ele>471</ele>
        <time>2022-08-27T14:46:24Z</time>
      </trkpt>
      <trkpt lat="44.47304" lon="4.10854">
        <ele>470</ele>
        <time>2022-08-27T14:46:30Z</time>
      </trkpt>
      <trkpt lat="44.47314" lon="4.10853">
        <ele>471</ele>
        <time>2022-08-27T14:46:43Z</time>
      </trkpt>
      <trkpt lat="44.47316" lon="4.10844">
        <ele>472</ele>
        <time>2022-08-27T14:46:52Z</time>
      </trkpt>
      <trkpt lat="44.4732" lon="4.10842">
        <ele>472</ele>
        <time>2022-08-27T14:46:58Z</time>
      </trkpt>
      <trkpt lat="44.47323" lon="4.10835">
        <ele>473</ele>
        <time>2022-08-27T14:47:06Z</time>
      </trkpt>
      <trkpt lat="44.47329" lon="4.10839">
        <ele>473</ele>
        <time>2022-08-27T14:47:14Z</time>
      </trkpt>
      <trkpt lat="44.47325" lon="4.10842">
        <ele>472</ele>
        <time>2022-08-27T14:47:21Z</time>
      </trkpt>
      <trkpt lat="44.47323" lon="4.10836">
        <ele>473</ele>
        <time>2022-08-27T14:47:27Z</time>
      </trkpt>
      <trkpt lat="44.47328" lon="4.10835">
        <ele>473</ele>
        <time>2022-08-27T14:47:34Z</time>
      </trkpt>
      <trkpt lat="44.47328" lon="4.10841">
        <ele>472</ele>
        <time>2022-08-27T14:47:39Z</time>
      </trkpt>
      <trkpt lat="44.47322" lon="4.10835">
        <ele>473</ele>
        <time>2022-08-27T14:47:49Z</time>
      </trkpt>
      <trkpt lat="44.47326" lon="4.10836">
        <ele>473</ele>
        <time>2022-08-27T14:47:55Z</time>
      </trkpt>
      <trkpt lat="44.47322" lon="4.10823">
        <ele>474</ele>
        <time>2022-08-27T14:48:08Z</time>
      </trkpt>
      <trkpt lat="44.47323" lon="4.10833">
        <ele>473</ele>
        <time>2022-08-27T14:48:18Z</time>
      </trkpt>
      <trkpt lat="44.47327" lon="4.10836">
        <ele>473</ele>
        <time>2022-08-27T14:48:24Z</time>
      </trkpt>
      <trkpt lat="44.47328" lon="4.1084">
        <ele>472</ele>
        <time>2022-08-27T14:48:28Z</time>
      </trkpt>
      <trkpt lat="44.4733" lon="4.10834">
        <ele>473</ele>
        <time>2022-08-27T14:48:34Z</time>
      </trkpt>
      <trkpt lat="44.4733" lon="4.10838">
        <ele>473</ele>
        <time>2022-08-27T14:48:38Z</time>
      </trkpt>
      <trkpt lat="44.47326" lon="4.10841">
        <ele>472</ele>
        <time>2022-08-27T14:48:44Z</time>
      </trkpt>
      <trkpt lat="44.47321" lon="4.10838">
        <ele>473</ele>
        <time>2022-08-27T14:48:51Z</time>
      </trkpt>
      <trkpt lat="44.47326" lon="4.10842">
        <ele>472</ele>
        <time>2022-08-27T14:48:59Z</time>
      </trkpt>
      <trkpt lat="44.47327" lon="4.10839">
        <ele>472</ele>
        <time>2022-08-27T14:49:02Z</time>
      </trkpt>
      <trkpt lat="44.47327" lon="4.10844">
        <ele>472</ele>
        <time>2022-08-27T14:49:07Z</time>
      </trkpt>
      <trkpt lat="44.47321" lon="4.10846">
        <ele>472</ele>
        <time>2022-08-27T14:49:15Z</time>
      </trkpt>
      <trkpt lat="44.47325" lon="4.10852">
        <ele>471</ele>
        <time>2022-08-27T14:49:23Z</time>
      </trkpt>
      <trkpt lat="44.47323" lon="4.10852">
        <ele>471</ele>
        <time>2022-08-27T14:49:25Z</time>
      </trkpt>
      <trkpt lat="44.47318" lon="4.10844">
        <ele>472</ele>
        <time>2022-08-27T14:49:36Z</time>
      </trkpt>
      <trkpt lat="44.47323" lon="4.10836">
        <ele>473</ele>
        <time>2022-08-27T14:49:46Z</time>
      </trkpt>
      <trkpt lat="44.47325" lon="4.10841">
        <ele>472</ele>
        <time>2022-08-27T14:49:51Z</time>
      </trkpt>
      <trkpt lat="44.47321" lon="4.10844">
        <ele>472</ele>
        <time>2022-08-27T14:49:57Z</time>
      </trkpt>
      <trkpt lat="44.47322" lon="4.10828">
        <ele>474</ele>
        <time>2022-08-27T14:50:13Z</time>
      </trkpt>
      <trkpt lat="44.4733" lon="4.10831">
        <ele>473</ele>
        <time>2022-08-27T14:50:24Z</time>
      </trkpt>
      <trkpt lat="44.47331" lon="4.10796">
        <ele>478</ele>
        <time>2022-08-27T14:50:57Z</time>
      </trkpt>
      <trkpt lat="44.47335" lon="4.10793">
        <ele>477</ele>
        <time>2022-08-27T14:51:03Z</time>
      </trkpt>
      <trkpt lat="44.47335" lon="4.10779">
        <ele>479</ele>
        <time>2022-08-27T14:51:16Z</time>
      </trkpt>
      <trkpt lat="44.47355" lon="4.10707">
        <ele>480</ele>
        <time>2022-08-27T14:52:30Z</time>
      </trkpt>
      <trkpt lat="44.47356" lon="4.10674">
        <ele>486</ele>
        <time>2022-08-27T14:53:01Z</time>
      </trkpt>
      <trkpt lat="44.47359" lon="4.10668">
        <ele>485</ele>
        <time>2022-08-27T14:53:08Z</time>
      </trkpt>
      <trkpt lat="44.47359" lon="4.10659">
        <ele>486</ele>
        <time>2022-08-27T14:53:17Z</time>
      </trkpt>
      <trkpt lat="44.47364" lon="4.10649">
        <ele>485</ele>
        <time>2022-08-27T14:53:29Z</time>
      </trkpt>
      <trkpt lat="44.47362" lon="4.1058">
        <ele>492</ele>
        <time>2022-08-27T14:54:34Z</time>
      </trkpt>
      <trkpt lat="44.47368" lon="4.10566">
        <ele>491</ele>
        <time>2022-08-27T14:54:50Z</time>
      </trkpt>
      <trkpt lat="44.4737" lon="4.10545">
        <ele>493</ele>
        <time>2022-08-27T14:55:10Z</time>
      </trkpt>
      <trkpt lat="44.47378" lon="4.10516">
        <ele>494</ele>
        <time>2022-08-27T14:55:40Z</time>
      </trkpt>
      <trkpt lat="44.47385" lon="4.10508">
        <ele>493</ele>
        <time>2022-08-27T14:55:52Z</time>
      </trkpt>
      <trkpt lat="44.47388" lon="4.10496">
        <ele>494</ele>
        <time>2022-08-27T14:56:04Z</time>
      </trkpt>
      <trkpt lat="44.47396" lon="4.1048">
        <ele>495</ele>
        <time>2022-08-27T14:56:22Z</time>
      </trkpt>
      <trkpt lat="44.474" lon="4.10478">
        <ele>494</ele>
        <time>2022-08-27T14:56:28Z</time>
      </trkpt>
      <trkpt lat="44.47401" lon="4.1047">
        <ele>496</ele>
        <time>2022-08-27T14:56:36Z</time>
      </trkpt>
      <trkpt lat="44.47411" lon="4.1046">
        <ele>494</ele>
        <time>2022-08-27T14:56:52Z</time>
      </trkpt>
      <trkpt lat="44.47413" lon="4.10453">
        <ele>495</ele>
        <time>2022-08-27T14:56:59Z</time>
      </trkpt>
      <trkpt lat="44.47425" lon="4.10445">
        <ele>494</ele>
        <time>2022-08-27T14:57:17Z</time>
      </trkpt>
      <trkpt lat="44.47442" lon="4.10442">
        <ele>490</ele>
        <time>2022-08-27T14:57:40Z</time>
      </trkpt>
      <trkpt lat="44.47447" lon="4.10445">
        <ele>488</ele>
        <time>2022-08-27T14:57:47Z</time>
      </trkpt>
      <trkpt lat="44.47451" lon="4.10442">
        <ele>487</ele>
        <time>2022-08-27T14:57:53Z</time>
      </trkpt>
      <trkpt lat="44.47456" lon="4.10445">
        <ele>485</ele>
        <time>2022-08-27T14:58:01Z</time>
      </trkpt>
      <trkpt lat="44.4746" lon="4.10439">
        <ele>486</ele>
        <time>2022-08-27T14:58:08Z</time>
      </trkpt>
      <trkpt lat="44.47461" lon="4.10409">
        <ele>495</ele>
        <time>2022-08-27T14:58:37Z</time>
      </trkpt>
      <trkpt lat="44.47465" lon="4.10397">
        <ele>498</ele>
        <time>2022-08-27T14:58:50Z</time>
      </trkpt>
      <trkpt lat="44.47469" lon="4.10393">
        <ele>499</ele>
        <time>2022-08-27T14:58:56Z</time>
      </trkpt>
      <trkpt lat="44.47482" lon="4.10392">
        <ele>496</ele>
        <time>2022-08-27T14:59:14Z</time>
      </trkpt>
      <trkpt lat="44.475" lon="4.10386">
        <ele>495</ele>
        <time>2022-08-27T14:59:38Z</time>
      </trkpt>
      <trkpt lat="44.47511" lon="4.10387">
        <ele>490</ele>
        <time>2022-08-27T14:59:53Z</time>
      </trkpt>
      <trkpt lat="44.47532" lon="4.10364">
        <ele>493</ele>
        <time>2022-08-27T15:00:28Z</time>
      </trkpt>
      <trkpt lat="44.4755" lon="4.1035">
        <ele>492</ele>
        <time>2022-08-27T15:00:56Z</time>
      </trkpt>
      <trkpt lat="44.47564" lon="4.10335">
        <ele>494</ele>
        <time>2022-08-27T15:01:19Z</time>
      </trkpt>
      <trkpt lat="44.47568" lon="4.10339">
        <ele>491</ele>
        <time>2022-08-27T15:01:26Z</time>
      </trkpt>
      <trkpt lat="44.47581" lon="4.10335">
        <ele>488</ele>
        <time>2022-08-27T15:01:44Z</time>
      </trkpt>
      <trkpt lat="44.47584" lon="4.10322">
        <ele>492</ele>
        <time>2022-08-27T15:01:57Z</time>
      </trkpt>
      <trkpt lat="44.47601" lon="4.1028">
        <ele>503</ele>
        <time>2022-08-27T15:02:43Z</time>
      </trkpt>
      <trkpt lat="44.4761" lon="4.10267">
        <ele>505</ele>
        <time>2022-08-27T15:03:00Z</time>
      </trkpt>
      <trkpt lat="44.47615" lon="4.10267">
        <ele>504</ele>
        <time>2022-08-27T15:03:07Z</time>
      </trkpt>
      <trkpt lat="44.47625" lon="4.10256">
        <ele>505</ele>
        <time>2022-08-27T15:03:24Z</time>
      </trkpt>
      <trkpt lat="44.47637" lon="4.1025">
        <ele>504</ele>
        <time>2022-08-27T15:03:41Z</time>
      </trkpt>
      <trkpt lat="44.47641" lon="4.10245">
        <ele>504</ele>
        <time>2022-08-27T15:03:48Z</time>
      </trkpt>
      <trkpt lat="44.47663" lon="4.10248">
        <ele>497</ele>
        <time>2022-08-27T15:04:17Z</time>
      </trkpt>
      <trkpt lat="44.47691" lon="4.10256">
        <ele>487</ele>
        <time>2022-08-27T15:04:55Z</time>
      </trkpt>
      <trkpt lat="44.4771" lon="4.10249">
        <ele>484</ele>
        <time>2022-08-27T15:05:22Z</time>
      </trkpt>
      <trkpt lat="44.47721" lon="4.10238">
        <ele>484</ele>
        <time>2022-08-27T15:05:40Z</time>
      </trkpt>
      <trkpt lat="44.47731" lon="4.10235">
        <ele>482</ele>
        <time>2022-08-27T15:05:53Z</time>
      </trkpt>
      <trkpt lat="44.47751" lon="4.1021">
        <ele>481</ele>
        <time>2022-08-27T15:06:29Z</time>
      </trkpt>
      <trkpt lat="44.47752" lon="4.10203">
        <ele>482</ele>
        <time>2022-08-27T15:06:36Z</time>
      </trkpt>
      <trkpt lat="44.47781" lon="4.10162">
        <ele>477</ele>
        <time>2022-08-27T15:07:31Z</time>
      </trkpt>
      <trkpt lat="44.47789" lon="4.10139">
        <ele>478</ele>
        <time>2022-08-27T15:07:55Z</time>
      </trkpt>
      <trkpt lat="44.47806" lon="4.1011">
        <ele>475</ele>
        <time>2022-08-27T15:08:31Z</time>
      </trkpt>
      <trkpt lat="44.47813" lon="4.10093">
        <ele>475</ele>
        <time>2022-08-27T15:08:50Z</time>
      </trkpt>
      <trkpt lat="44.47811" lon="4.10088">
        <ele>476</ele>
        <time>2022-08-27T15:08:55Z</time>
      </trkpt>
      <trkpt lat="44.47815" lon="4.10067">
        <ele>479</ele>
        <time>2022-08-27T15:09:16Z</time>
      </trkpt>
      <trkpt lat="44.47829" lon="4.10036">
        <ele>478</ele>
        <time>2022-08-27T15:09:51Z</time>
      </trkpt>
      <trkpt lat="44.47829" lon="4.10028">
        <ele>480</ele>
        <time>2022-08-27T15:09:58Z</time>
      </trkpt>
      <trkpt lat="44.47833" lon="4.10019">
        <ele>480</ele>
        <time>2022-08-27T15:10:08Z</time>
      </trkpt>
      <trkpt lat="44.47842" lon="4.1001">
        <ele>481</ele>
        <time>2022-08-27T15:10:23Z</time>
      </trkpt>
      <trkpt lat="44.47852" lon="4.10009">
        <ele>480</ele>
        <time>2022-08-27T15:10:37Z</time>
      </trkpt>
      <trkpt lat="44.47857" lon="4.10004">
        <ele>481</ele>
        <time>2022-08-27T15:10:45Z</time>
      </trkpt>
      <trkpt lat="44.4788" lon="4.10008">
        <ele>477</ele>
        <time>2022-08-27T15:11:16Z</time>
      </trkpt>
      <trkpt lat="44.47909" lon="4.10022">
        <ele>471</ele>
        <time>2022-08-27T15:11:57Z</time>
      </trkpt>
      <trkpt lat="44.47943" lon="4.10023">
        <ele>466</ele>
        <time>2022-08-27T15:12:42Z</time>
      </trkpt>
      <trkpt lat="44.47948" lon="4.10026">
        <ele>464</ele>
        <time>2022-08-27T15:12:49Z</time>
      </trkpt>
      <trkpt lat="44.47955" lon="4.10026">
        <ele>464</ele>
        <time>2022-08-27T15:12:59Z</time>
      </trkpt>
      <trkpt lat="44.47967" lon="4.10034">
        <ele>460</ele>
        <time>2022-08-27T15:13:16Z</time>
      </trkpt>
      <trkpt lat="44.47985" lon="4.10029">
        <ele>459</ele>
        <time>2022-08-27T15:13:41Z</time>
      </trkpt>
      <trkpt lat="44.47994" lon="4.1002">
        <ele>460</ele>
        <time>2022-08-27T15:13:56Z</time>
      </trkpt>
      <trkpt lat="44.48008" lon="4.10017">
        <ele>456</ele>
        <time>2022-08-27T15:14:14Z</time>
      </trkpt>
      <trkpt lat="44.48005" lon="4.10034">
        <ele>454</ele>
        <time>2022-08-27T15:14:31Z</time>
      </trkpt>
      <trkpt lat="44.48011" lon="4.10033">
        <ele>451</ele>
        <time>2022-08-27T15:14:39Z</time>
      </trkpt>
      <trkpt lat="44.48015" lon="4.10029">
        <ele>450</ele>
        <time>2022-08-27T15:14:46Z</time>
      </trkpt>
      <trkpt lat="44.4803" lon="4.09995">
        <ele>452</ele>
        <time>2022-08-27T15:15:24Z</time>
      </trkpt>
      <trkpt lat="44.48039" lon="4.09981">
        <ele>451</ele>
        <time>2022-08-27T15:15:42Z</time>
      </trkpt>
      <trkpt lat="44.48041" lon="4.09973">
        <ele>452</ele>
        <time>2022-08-27T15:15:50Z</time>
      </trkpt>
      <trkpt lat="44.4805" lon="4.09962">
        <ele>450</ele>
        <time>2022-08-27T15:16:06Z</time>
      </trkpt>
      <trkpt lat="44.48055" lon="4.09951">
        <ele>451</ele>
        <time>2022-08-27T15:16:18Z</time>
      </trkpt>
      <trkpt lat="44.48062" lon="4.09944">
        <ele>449</ele>
        <time>2022-08-27T15:16:30Z</time>
      </trkpt>
      <trkpt lat="44.48068" lon="4.09923">
        <ele>450</ele>
        <time>2022-08-27T15:16:51Z</time>
      </trkpt>
      <trkpt lat="44.48072" lon="4.09922">
        <ele>449</ele>
        <time>2022-08-27T15:16:57Z</time>
      </trkpt>
      <trkpt lat="44.48074" lon="4.09907">
        <ele>450</ele>
        <time>2022-08-27T15:17:11Z</time>
      </trkpt>
      <trkpt lat="44.48071" lon="4.09882">
        <ele>456</ele>
        <time>2022-08-27T15:17:35Z</time>
      </trkpt>
      <trkpt lat="44.48072" lon="4.0985">
        <ele>461</ele>
        <time>2022-08-27T15:18:06Z</time>
      </trkpt>
      <trkpt lat="44.48075" lon="4.09846">
        <ele>460</ele>
        <time>2022-08-27T15:18:11Z</time>
      </trkpt>
      <trkpt lat="44.48076" lon="4.09831">
        <ele>461</ele>
        <time>2022-08-27T15:18:26Z</time>
      </trkpt>
      <trkpt lat="44.48082" lon="4.09812">
        <ele>458</ele>
        <time>2022-08-27T15:18:45Z</time>
      </trkpt>
      <trkpt lat="44.48086" lon="4.09806">
        <ele>456</ele>
        <time>2022-08-27T15:18:53Z</time>
      </trkpt>
      <trkpt lat="44.48088" lon="4.09785">
        <ele>455</ele>
        <time>2022-08-27T15:19:13Z</time>
      </trkpt>
      <trkpt lat="44.48092" lon="4.09778">
        <ele>453</ele>
        <time>2022-08-27T15:19:22Z</time>
      </trkpt>
      <trkpt lat="44.48093" lon="4.09769">
        <ele>453</ele>
        <time>2022-08-27T15:19:31Z</time>
      </trkpt>
      <trkpt lat="44.48097" lon="4.09764">
        <ele>451</ele>
        <time>2022-08-27T15:19:38Z</time>
      </trkpt>
      <trkpt lat="44.48098" lon="4.09753">
        <ele>451</ele>
        <time>2022-08-27T15:19:48Z</time>
      </trkpt>
      <trkpt lat="44.48094" lon="4.0975">
        <ele>452</ele>
        <time>2022-08-27T15:19:54Z</time>
      </trkpt>
      <trkpt lat="44.48092" lon="4.09744">
        <ele>453</ele>
        <time>2022-08-27T15:20:01Z</time>
      </trkpt>
      <trkpt lat="44.48093" lon="4.0973">
        <ele>451</ele>
        <time>2022-08-27T15:20:14Z</time>
      </trkpt>
      <trkpt lat="44.48082" lon="4.09701">
        <ele>451</ele>
        <time>2022-08-27T15:20:45Z</time>
      </trkpt>
      <trkpt lat="44.48055" lon="4.0967">
        <ele>463</ele>
        <time>2022-08-27T15:21:32Z</time>
      </trkpt>
      <trkpt lat="44.48052" lon="4.09652">
        <ele>464</ele>
        <time>2022-08-27T15:21:50Z</time>
      </trkpt>
      <trkpt lat="44.48058" lon="4.09626">
        <ele>463</ele>
        <time>2022-08-27T15:22:16Z</time>
      </trkpt>
      <trkpt lat="44.48054" lon="4.09622">
        <ele>465</ele>
        <time>2022-08-27T15:22:22Z</time>
      </trkpt>
      <trkpt lat="44.48053" lon="4.09608">
        <ele>467</ele>
        <time>2022-08-27T15:22:36Z</time>
      </trkpt>
      <trkpt lat="44.48047" lon="4.09603">
        <ele>469</ele>
        <time>2022-08-27T15:22:45Z</time>
      </trkpt>
      <trkpt lat="44.48051" lon="4.09591">
        <ele>468</ele>
        <time>2022-08-27T15:22:57Z</time>
      </trkpt>
      <trkpt lat="44.48062" lon="4.09579">
        <ele>467</ele>
        <time>2022-08-27T15:23:16Z</time>
      </trkpt>
      <trkpt lat="44.48071" lon="4.09577">
        <ele>466</ele>
        <time>2022-08-27T15:23:28Z</time>
      </trkpt>
      <trkpt lat="44.4808" lon="4.0958">
        <ele>462</ele>
        <time>2022-08-27T15:23:41Z</time>
      </trkpt>
      <trkpt lat="44.4808" lon="4.09589">
        <ele>460</ele>
        <time>2022-08-27T15:23:49Z</time>
      </trkpt>
      <trkpt lat="44.48085" lon="4.09588">
        <ele>459</ele>
        <time>2022-08-27T15:23:56Z</time>
      </trkpt>
      <trkpt lat="44.4809" lon="4.09584">
        <ele>460</ele>
        <time>2022-08-27T15:24:04Z</time>
      </trkpt>
      <trkpt lat="44.48094" lon="4.09576">
        <ele>463</ele>
        <time>2022-08-27T15:24:13Z</time>
      </trkpt>
      <trkpt lat="44.48099" lon="4.09574">
        <ele>464</ele>
        <time>2022-08-27T15:24:20Z</time>
      </trkpt>
      <trkpt lat="44.48106" lon="4.09563">
        <ele>469</ele>
        <time>2022-08-27T15:24:34Z</time>
      </trkpt>
      <trkpt lat="44.48126" lon="4.0956">
        <ele>470</ele>
        <time>2022-08-27T15:25:01Z</time>
      </trkpt>
      <trkpt lat="44.48131" lon="4.09557">
        <ele>471</ele>
        <time>2022-08-27T15:25:08Z</time>
      </trkpt>
      <trkpt lat="44.48139" lon="4.0956">
        <ele>470</ele>
        <time>2022-08-27T15:25:19Z</time>
      </trkpt>
      <trkpt lat="44.48151" lon="4.09553">
        <ele>473</ele>
        <time>2022-08-27T15:25:36Z</time>
      </trkpt>
      <trkpt lat="44.48157" lon="4.09545">
        <ele>476</ele>
        <time>2022-08-27T15:25:47Z</time>
      </trkpt>
      <trkpt lat="44.4817" lon="4.0954">
        <ele>478</ele>
        <time>2022-08-27T15:26:05Z</time>
      </trkpt>
      <trkpt lat="44.48186" lon="4.09538">
        <ele>481</ele>
        <time>2022-08-27T15:26:27Z</time>
      </trkpt>
      <trkpt lat="44.48207" lon="4.09546">
        <ele>481</ele>
        <time>2022-08-27T15:26:56Z</time>
      </trkpt>
      <trkpt lat="44.48206" lon="4.09533">
        <ele>486</ele>
        <time>2022-08-27T15:27:08Z</time>
      </trkpt>
      <trkpt lat="44.48211" lon="4.09532">
        <ele>487</ele>
        <time>2022-08-27T15:27:15Z</time>
      </trkpt>
      <trkpt lat="44.48221" lon="4.09533">
        <ele>488</ele>
        <time>2022-08-27T15:27:28Z</time>
      </trkpt>
      <trkpt lat="44.48224" lon="4.09536">
        <ele>487</ele>
        <time>2022-08-27T15:27:33Z</time>
      </trkpt>
      <trkpt lat="44.48241" lon="4.09583">
        <ele>475</ele>
        <time>2022-08-27T15:28:24Z</time>
      </trkpt>
      <trkpt lat="44.48249" lon="4.09591">
        <ele>475</ele>
        <time>2022-08-27T15:28:37Z</time>
      </trkpt>
      <trkpt lat="44.48262" lon="4.09591">
        <ele>473</ele>
        <time>2022-08-27T15:28:54Z</time>
      </trkpt>
      <trkpt lat="44.48285" lon="4.09605">
        <ele>467</ele>
        <time>2022-08-27T15:29:27Z</time>
      </trkpt>
      <trkpt lat="44.48301" lon="4.09601">
        <ele>466</ele>
        <time>2022-08-27T15:29:49Z</time>
      </trkpt>
      <trkpt lat="44.4831" lon="4.0959">
        <ele>466</ele>
        <time>2022-08-27T15:30:05Z</time>
      </trkpt>
      <trkpt lat="44.48342" lon="4.09497">
        <ele>479</ele>
        <time>2022-08-27T15:31:43Z</time>
      </trkpt>
      <trkpt lat="44.48348" lon="4.09494">
        <ele>478</ele>
        <time>2022-08-27T15:31:52Z</time>
      </trkpt>
      <trkpt lat="44.48351" lon="4.09498">
        <ele>477</ele>
        <time>2022-08-27T15:31:57Z</time>
      </trkpt>
      <trkpt lat="44.48349" lon="4.0953">
        <ele>470</ele>
        <time>2022-08-27T15:32:28Z</time>
      </trkpt>
      <trkpt lat="44.48344" lon="4.09554">
        <ele>467</ele>
        <time>2022-08-27T15:32:52Z</time>
      </trkpt>
      <trkpt lat="44.48343" lon="4.09552">
        <ele>468</ele>
        <time>2022-08-27T15:32:54Z</time>
      </trkpt>
      <trkpt lat="44.48358" lon="4.09511">
        <ele>472</ele>
        <time>2022-08-27T15:33:38Z</time>
      </trkpt>
      <trkpt lat="44.48364" lon="4.09511">
        <ele>470</ele>
        <time>2022-08-27T15:33:46Z</time>
      </trkpt>
      <trkpt lat="44.48373" lon="4.09504">
        <ele>469</ele>
        <time>2022-08-27T15:34:00Z</time>
      </trkpt>
      <trkpt lat="44.48376" lon="4.09498">
        <ele>470</ele>
        <time>2022-08-27T15:34:07Z</time>
      </trkpt>
      <trkpt lat="44.48394" lon="4.09489">
        <ele>467</ele>
        <time>2022-08-27T15:34:32Z</time>
      </trkpt>
      <trkpt lat="44.48404" lon="4.09493">
        <ele>463</ele>
        <time>2022-08-27T15:34:46Z</time>
      </trkpt>
      <trkpt lat="44.48406" lon="4.095">
        <ele>461</ele>
        <time>2022-08-27T15:34:53Z</time>
      </trkpt>
      <trkpt lat="44.48416" lon="4.09493">
        <ele>460</ele>
        <time>2022-08-27T15:35:08Z</time>
      </trkpt>
      <trkpt lat="44.48421" lon="4.09493">
        <ele>459</ele>
        <time>2022-08-27T15:35:15Z</time>
      </trkpt>
      <trkpt lat="44.48426" lon="4.09498">
        <ele>457</ele>
        <time>2022-08-27T15:35:23Z</time>
      </trkpt>
      <trkpt lat="44.48433" lon="4.09496">
        <ele>456</ele>
        <time>2022-08-27T15:35:33Z</time>
      </trkpt>
      <trkpt lat="44.48436" lon="4.09501">
        <ele>454</ele>
        <time>2022-08-27T15:35:39Z</time>
      </trkpt>
      <trkpt lat="44.48455" lon="4.09507">
        <ele>449</ele>
        <time>2022-08-27T15:36:05Z</time>
      </trkpt>
      <trkpt lat="44.48461" lon="4.09522">
        <ele>446</ele>
        <time>2022-08-27T15:36:21Z</time>
      </trkpt>
      <trkpt lat="44.48466" lon="4.09526">
        <ele>444</ele>
        <time>2022-08-27T15:36:29Z</time>
      </trkpt>
      <trkpt lat="44.4847" lon="4.09525">
        <ele>444</ele>
        <time>2022-08-27T15:36:34Z</time>
      </trkpt>
      <trkpt lat="44.4848" lon="4.09515">
        <ele>444</ele>
        <time>2022-08-27T15:36:51Z</time>
      </trkpt>
      <trkpt lat="44.48491" lon="4.09469">
        <ele>452</ele>
        <time>2022-08-27T15:37:37Z</time>
      </trkpt>
      <trkpt lat="44.48497" lon="4.09462">
        <ele>453</ele>
        <time>2022-08-27T15:37:47Z</time>
      </trkpt>
      <trkpt lat="44.48503" lon="4.09461">
        <ele>453</ele>
        <time>2022-08-27T15:37:55Z</time>
      </trkpt>
      <trkpt lat="44.48521" lon="4.09443">
        <ele>455</ele>
        <time>2022-08-27T15:38:25Z</time>
      </trkpt>
      <trkpt lat="44.48543" lon="4.09434">
        <ele>454</ele>
        <time>2022-08-27T15:38:55Z</time>
      </trkpt>
      <trkpt lat="44.48551" lon="4.09448">
        <ele>450</ele>
        <time>2022-08-27T15:39:12Z</time>
      </trkpt>
      <trkpt lat="44.48549" lon="4.09467">
        <ele>447</ele>
        <time>2022-08-27T15:39:31Z</time>
      </trkpt>
      <trkpt lat="44.4855" lon="4.09493">
        <ele>443</ele>
        <time>2022-08-27T15:39:56Z</time>
      </trkpt>
      <trkpt lat="44.48556" lon="4.09502">
        <ele>441</ele>
        <time>2022-08-27T15:40:07Z</time>
      </trkpt>
      <trkpt lat="44.48567" lon="4.09549">
        <ele>445</ele>
        <time>2022-08-27T15:40:54Z</time>
      </trkpt>
      <trkpt lat="44.48567" lon="4.09564">
        <ele>446</ele>
        <time>2022-08-27T15:41:09Z</time>
      </trkpt>
      <trkpt lat="44.48572" lon="4.09579">
        <ele>449</ele>
        <time>2022-08-27T15:41:24Z</time>
      </trkpt>
      <trkpt lat="44.4857" lon="4.09593">
        <ele>451</ele>
        <time>2022-08-27T15:41:38Z</time>
      </trkpt>
      <trkpt lat="44.48573" lon="4.096">
        <ele>453</ele>
        <time>2022-08-27T15:41:46Z</time>
      </trkpt>
      <trkpt lat="44.48571" lon="4.09607">
        <ele>454</ele>
        <time>2022-08-27T15:41:53Z</time>
      </trkpt>
      <trkpt lat="44.48566" lon="4.09614">
        <ele>454</ele>
        <time>2022-08-27T15:42:02Z</time>
      </trkpt>
      <trkpt lat="44.48565" lon="4.09622">
        <ele>455</ele>
        <time>2022-08-27T15:42:10Z</time>
      </trkpt>
      <trkpt lat="44.48554" lon="4.09629">
        <ele>453</ele>
        <time>2022-08-27T15:42:26Z</time>
      </trkpt>
      <trkpt lat="44.48564" lon="4.09635">
        <ele>457</ele>
        <time>2022-08-27T15:42:41Z</time>
      </trkpt>
      <trkpt lat="44.48576" lon="4.09634">
        <ele>461</ele>
        <time>2022-08-27T15:42:57Z</time>
      </trkpt>
      <trkpt lat="44.48586" lon="4.09628">
        <ele>463</ele>
        <time>2022-08-27T15:43:11Z</time>
      </trkpt>
      <trkpt lat="44.48596" lon="4.09612">
        <ele>463</ele>
        <time>2022-08-27T15:43:32Z</time>
      </trkpt>
      <trkpt lat="44.48599" lon="4.09622">
        <ele>466</ele>
        <time>2022-08-27T15:43:42Z</time>
      </trkpt>
      <trkpt lat="44.48584" lon="4.09656">
        <ele>468</ele>
        <time>2022-08-27T15:44:20Z</time>
      </trkpt>
      <trkpt lat="44.48566" lon="4.09669">
        <ele>464</ele>
        <time>2022-08-27T15:44:47Z</time>
      </trkpt>
      <trkpt lat="44.48564" lon="4.09677">
        <ele>465</ele>
        <time>2022-08-27T15:44:55Z</time>
      </trkpt>
      <trkpt lat="44.48571" lon="4.09679">
        <ele>468</ele>
        <time>2022-08-27T15:45:05Z</time>
      </trkpt>
      <trkpt lat="44.48577" lon="4.09675">
        <ele>469</ele>
        <time>2022-08-27T15:45:13Z</time>
      </trkpt>
      <trkpt lat="44.48623" lon="4.09636">
        <ele>479</ele>
        <time>2022-08-27T15:46:25Z</time>
      </trkpt>
      <trkpt lat="44.48634" lon="4.09618">
        <ele>478</ele>
        <time>2022-08-27T15:46:48Z</time>
      </trkpt>
      <trkpt lat="44.48642" lon="4.0961">
        <ele>479</ele>
        <time>2022-08-27T15:47:01Z</time>
      </trkpt>
      <trkpt lat="44.48652" lon="4.0959">
        <ele>478</ele>
        <time>2022-08-27T15:47:24Z</time>
      </trkpt>
      <trkpt lat="44.48667" lon="4.09575">
        <ele>479</ele>
        <time>2022-08-27T15:47:49Z</time>
      </trkpt>
      <trkpt lat="44.48678" lon="4.09577">
        <ele>480</ele>
        <time>2022-08-27T15:48:04Z</time>
      </trkpt>
      <trkpt lat="44.48688" lon="4.09573">
        <ele>480</ele>
        <time>2022-08-27T15:48:17Z</time>
      </trkpt>
      <trkpt lat="44.48692" lon="4.09575">
        <ele>481</ele>
        <time>2022-08-27T15:48:23Z</time>
      </trkpt>
      <trkpt lat="44.48687" lon="4.0958">
        <ele>482</ele>
        <time>2022-08-27T15:48:31Z</time>
      </trkpt>
      <trkpt lat="44.48681" lon="4.09576">
        <ele>480</ele>
        <time>2022-08-27T15:48:40Z</time>
      </trkpt>
      <trkpt lat="44.48683" lon="4.09588">
        <ele>484</ele>
        <time>2022-08-27T15:48:52Z</time>
      </trkpt>
      <trkpt lat="44.48678" lon="4.09586">
        <ele>483</ele>
        <time>2022-08-27T15:48:59Z</time>
      </trkpt>
      <trkpt lat="44.4867" lon="4.09589">
        <ele>483</ele>
        <time>2022-08-27T15:49:10Z</time>
      </trkpt>
      <trkpt lat="44.48668" lon="4.09638">
        <ele>496</ele>
        <time>2022-08-27T15:49:57Z</time>
      </trkpt>
      <trkpt lat="44.48661" lon="4.09659">
        <ele>500</ele>
        <time>2022-08-27T15:50:19Z</time>
      </trkpt>
      <trkpt lat="44.4865" lon="4.09675">
        <ele>499</ele>
        <time>2022-08-27T15:50:40Z</time>
      </trkpt>
      <trkpt lat="44.48651" lon="4.09693">
        <ele>503</ele>
        <time>2022-08-27T15:50:57Z</time>
      </trkpt>
      <trkpt lat="44.4866" lon="4.09683">
        <ele>504</ele>
        <time>2022-08-27T15:51:12Z</time>
      </trkpt>
      <trkpt lat="44.48663" lon="4.09675">
        <ele>504</ele>
        <time>2022-08-27T15:51:21Z</time>
      </trkpt>
      <trkpt lat="44.48667" lon="4.09673">
        <ele>505</ele>
        <time>2022-08-27T15:51:27Z</time>
      </trkpt>
      <trkpt lat="44.48673" lon="4.09674">
        <ele>507</ele>
        <time>2022-08-27T15:51:35Z</time>
      </trkpt>
      <trkpt lat="44.48676" lon="4.09681">
        <ele>509</ele>
        <time>2022-08-27T15:51:42Z</time>
      </trkpt>
      <trkpt lat="44.48677" lon="4.09687">
        <ele>511</ele>
        <time>2022-08-27T15:51:48Z</time>
      </trkpt>
      <trkpt lat="44.48673" lon="4.09701">
        <ele>512</ele>
        <time>2022-08-27T15:52:03Z</time>
      </trkpt>
      <trkpt lat="44.48683" lon="4.0974">
        <ele>523</ele>
        <time>2022-08-27T15:52:42Z</time>
      </trkpt>
      <trkpt lat="44.48683" lon="4.09756">
        <ele>526</ele>
        <time>2022-08-27T15:52:57Z</time>
      </trkpt>
      <trkpt lat="44.48689" lon="4.09767">
        <ele>529</ele>
        <time>2022-08-27T15:53:11Z</time>
      </trkpt>
      <trkpt lat="44.4869" lon="4.0978">
        <ele>530</ele>
        <time>2022-08-27T15:53:23Z</time>
      </trkpt>
      <trkpt lat="44.48694" lon="4.09786">
        <ele>532</ele>
        <time>2022-08-27T15:53:31Z</time>
      </trkpt>
      <trkpt lat="44.48701" lon="4.09809">
        <ele>537</ele>
        <time>2022-08-27T15:53:55Z</time>
      </trkpt>
      <trkpt lat="44.487" lon="4.09819">
        <ele>537</ele>
        <time>2022-08-27T15:54:04Z</time>
      </trkpt>
      <trkpt lat="44.48706" lon="4.0983">
        <ele>541</ele>
        <time>2022-08-27T15:54:17Z</time>
      </trkpt>
      <trkpt lat="44.48704" lon="4.09845">
        <ele>540</ele>
        <time>2022-08-27T15:54:32Z</time>
      </trkpt>
      <trkpt lat="44.48716" lon="4.09866">
        <ele>545</ele>
        <time>2022-08-27T15:54:58Z</time>
      </trkpt>
      <trkpt lat="44.48718" lon="4.09886">
        <ele>547</ele>
        <time>2022-08-27T15:55:17Z</time>
      </trkpt>
      <trkpt lat="44.48721" lon="4.0989">
        <ele>548</ele>
        <time>2022-08-27T15:55:22Z</time>
      </trkpt>
      <trkpt lat="44.48723" lon="4.09905">
        <ele>549</ele>
        <time>2022-08-27T15:55:37Z</time>
      </trkpt>
      <trkpt lat="44.48723" lon="4.09924">
        <ele>550</ele>
        <time>2022-08-27T15:55:55Z</time>
      </trkpt>
      <trkpt lat="44.48727" lon="4.09933">
        <ele>553</ele>
        <time>2022-08-27T15:56:05Z</time>
      </trkpt>
      <trkpt lat="44.48725" lon="4.09953">
        <ele>553</ele>
        <time>2022-08-27T15:56:24Z</time>
      </trkpt>
      <trkpt lat="44.48727" lon="4.09965">
        <ele>555</ele>
        <time>2022-08-27T15:56:36Z</time>
      </trkpt>
      <trkpt lat="44.4872" lon="4.0999">
        <ele>554</ele>
        <time>2022-08-27T15:57:02Z</time>
      </trkpt>
      <trkpt lat="44.4872" lon="4.10014">
        <ele>556</ele>
        <time>2022-08-27T15:57:24Z</time>
      </trkpt>
      <trkpt lat="44.48713" lon="4.10068">
        <ele>555</ele>
        <time>2022-08-27T15:58:17Z</time>
      </trkpt>
      <trkpt lat="44.4872" lon="4.10116">
        <ele>561</ele>
        <time>2022-08-27T15:59:03Z</time>
      </trkpt>
      <trkpt lat="44.48727" lon="4.10127">
        <ele>565</ele>
        <time>2022-08-27T15:59:17Z</time>
      </trkpt>
      <trkpt lat="44.48728" lon="4.1015">
        <ele>566</ele>
        <time>2022-08-27T15:59:39Z</time>
      </trkpt>
      <trkpt lat="44.48736" lon="4.1017">
        <ele>571</ele>
        <time>2022-08-27T16:00:01Z</time>
      </trkpt>
      <trkpt lat="44.48733" lon="4.10199">
        <ele>572</ele>
        <time>2022-08-27T16:00:29Z</time>
      </trkpt>
      <trkpt lat="44.48736" lon="4.10204">
        <ele>574</ele>
        <time>2022-08-27T16:00:35Z</time>
      </trkpt>
      <trkpt lat="44.48729" lon="4.10231">
        <ele>574</ele>
        <time>2022-08-27T16:01:03Z</time>
      </trkpt>
      <trkpt lat="44.48722" lon="4.10245">
        <ele>573</ele>
        <time>2022-08-27T16:01:19Z</time>
      </trkpt>
      <trkpt lat="44.48719" lon="4.10292">
        <ele>580</ele>
        <time>2022-08-27T16:02:04Z</time>
      </trkpt>
      <trkpt lat="44.48713" lon="4.10307">
        <ele>581</ele>
        <time>2022-08-27T16:02:20Z</time>
      </trkpt>
      <trkpt lat="44.48705" lon="4.10318">
        <ele>581</ele>
        <time>2022-08-27T16:02:35Z</time>
      </trkpt>
      <trkpt lat="44.48701" lon="4.10331">
        <ele>582</ele>
        <time>2022-08-27T16:02:49Z</time>
      </trkpt>
      <trkpt lat="44.487" lon="4.10366">
        <ele>583</ele>
        <time>2022-08-27T16:03:22Z</time>
      </trkpt>
      <trkpt lat="44.48697" lon="4.10372">
        <ele>583</ele>
        <time>2022-08-27T16:03:29Z</time>
      </trkpt>
      <trkpt lat="44.48691" lon="4.10368">
        <ele>582</ele>
        <time>2022-08-27T16:03:38Z</time>
      </trkpt>
      <trkpt lat="44.48686" lon="4.10373">
        <ele>581</ele>
        <time>2022-08-27T16:03:46Z</time>
      </trkpt>
      <trkpt lat="44.48653" lon="4.10379">
        <ele>574</ele>
        <time>2022-08-27T16:04:30Z</time>
      </trkpt>
      <trkpt lat="44.48619" lon="4.10389">
        <ele>569</ele>
        <time>2022-08-27T16:05:17Z</time>
      </trkpt>
      <trkpt lat="44.48613" lon="4.10387">
        <ele>568</ele>
        <time>2022-08-27T16:05:25Z</time>
      </trkpt>
      <trkpt lat="44.48586" lon="4.10403">
        <ele>565</ele>
        <time>2022-08-27T16:06:04Z</time>
      </trkpt>
      <trkpt lat="44.48564" lon="4.10408">
        <ele>563</ele>
        <time>2022-08-27T16:06:34Z</time>
      </trkpt>
      <trkpt lat="44.48523" lon="4.10433">
        <ele>556</ele>
        <time>2022-08-27T16:07:33Z</time>
      </trkpt>
      <trkpt lat="44.48489" lon="4.10448">
        <ele>549</ele>
        <time>2022-08-27T16:08:21Z</time>
      </trkpt>
      <trkpt lat="44.48478" lon="4.10458">
        <ele>546</ele>
        <time>2022-08-27T16:08:38Z</time>
      </trkpt>
      <trkpt lat="44.48453" lon="4.10469">
        <ele>541</ele>
        <time>2022-08-27T16:09:13Z</time>
      </trkpt>
      <trkpt lat="44.4844" lon="4.10482">
        <ele>538</ele>
        <time>2022-08-27T16:09:35Z</time>
      </trkpt>
      <trkpt lat="44.48427" lon="4.10488">
        <ele>537</ele>
        <time>2022-08-27T16:09:53Z</time>
      </trkpt>
      <trkpt lat="44.48413" lon="4.10486">
        <ele>535</ele>
        <time>2022-08-27T16:10:12Z</time>
      </trkpt>
      <trkpt lat="44.48411" lon="4.10491">
        <ele>534</ele>
        <time>2022-08-27T16:10:17Z</time>
      </trkpt>
      <trkpt lat="44.48405" lon="4.1049">
        <ele>533</ele>
        <time>2022-08-27T16:10:25Z</time>
      </trkpt>
      <trkpt lat="44.48397" lon="4.10471">
        <ele>531</ele>
        <time>2022-08-27T16:10:46Z</time>
      </trkpt>
      <trkpt lat="44.48397" lon="4.10456">
        <ele>531</ele>
        <time>2022-08-27T16:11:01Z</time>
      </trkpt>
      <trkpt lat="44.48402" lon="4.10428">
        <ele>532</ele>
        <time>2022-08-27T16:11:28Z</time>
      </trkpt>
      <trkpt lat="44.48413" lon="4.10388">
        <ele>531</ele>
        <time>2022-08-27T16:12:09Z</time>
      </trkpt>
      <trkpt lat="44.48411" lon="4.10361">
        <ele>526</ele>
        <time>2022-08-27T16:12:35Z</time>
      </trkpt>
      <trkpt lat="44.48415" lon="4.10333">
        <ele>523</ele>
        <time>2022-08-27T16:13:02Z</time>
      </trkpt>
      <trkpt lat="44.48405" lon="4.10332">
        <ele>519</ele>
        <time>2022-08-27T16:13:15Z</time>
      </trkpt>
      <trkpt lat="44.48416" lon="4.10322">
        <ele>522</ele>
        <time>2022-08-27T16:13:33Z</time>
      </trkpt>
      <trkpt lat="44.48415" lon="4.10295">
        <ele>516</ele>
        <time>2022-08-27T16:13:59Z</time>
      </trkpt>
      <trkpt lat="44.48418" lon="4.1028">
        <ele>514</ele>
        <time>2022-08-27T16:14:13Z</time>
      </trkpt>
      <trkpt lat="44.48438" lon="4.10237">
        <ele>507</ele>
        <time>2022-08-27T16:15:02Z</time>
      </trkpt>
      <trkpt lat="44.48444" lon="4.10232">
        <ele>506</ele>
        <time>2022-08-27T16:15:12Z</time>
      </trkpt>
      <trkpt lat="44.48442" lon="4.10226">
        <ele>504</ele>
        <time>2022-08-27T16:15:18Z</time>
      </trkpt>
      <trkpt lat="44.48435" lon="4.10225">
        <ele>503</ele>
        <time>2022-08-27T16:15:27Z</time>
      </trkpt>
      <trkpt lat="44.48431" lon="4.10227">
        <ele>503</ele>
        <time>2022-08-27T16:15:33Z</time>
      </trkpt>
      <trkpt lat="44.48389" lon="4.10261">
        <ele>500</ele>
        <time>2022-08-27T16:16:38Z</time>
      </trkpt>
      <trkpt lat="44.48379" lon="4.10265">
        <ele>497</ele>
        <time>2022-08-27T16:16:52Z</time>
      </trkpt>
      <trkpt lat="44.48373" lon="4.10251">
        <ele>493</ele>
        <time>2022-08-27T16:17:07Z</time>
      </trkpt>
      <trkpt lat="44.48359" lon="4.10263">
        <ele>490</ele>
        <time>2022-08-27T16:17:29Z</time>
      </trkpt>
      <trkpt lat="44.48355" lon="4.10254">
        <ele>487</ele>
        <time>2022-08-27T16:17:39Z</time>
      </trkpt>
      <trkpt lat="44.48356" lon="4.10238">
        <ele>483</ele>
        <time>2022-08-27T16:17:54Z</time>
      </trkpt>
      <trkpt lat="44.48363" lon="4.10222">
        <ele>481</ele>
        <time>2022-08-27T16:18:12Z</time>
      </trkpt>
      <trkpt lat="44.48342" lon="4.10234">
        <ele>478</ele>
        <time>2022-08-27T16:18:43Z</time>
      </trkpt>
      <trkpt lat="44.48342" lon="4.10219">
        <ele>473</ele>
        <time>2022-08-27T16:18:57Z</time>
      </trkpt>
      <trkpt lat="44.48322" lon="4.10231">
        <ele>469</ele>
        <time>2022-08-27T16:19:26Z</time>
      </trkpt>
      <trkpt lat="44.48318" lon="4.10237">
        <ele>469</ele>
        <time>2022-08-27T16:19:34Z</time>
      </trkpt>
      <trkpt lat="44.48313" lon="4.10234">
        <ele>466</ele>
        <time>2022-08-27T16:19:41Z</time>
      </trkpt>
      <trkpt lat="44.48315" lon="4.10209">
        <ele>461</ele>
        <time>2022-08-27T16:20:05Z</time>
      </trkpt>
      <trkpt lat="44.4832" lon="4.1019">
        <ele>458</ele>
        <time>2022-08-27T16:20:24Z</time>
      </trkpt>
      <trkpt lat="44.48315" lon="4.10186">
        <ele>455</ele>
        <time>2022-08-27T16:20:32Z</time>
      </trkpt>
      <trkpt lat="44.48309" lon="4.10192">
        <ele>454</ele>
        <time>2022-08-27T16:20:42Z</time>
      </trkpt>
      <trkpt lat="44.48298" lon="4.10191">
        <ele>450</ele>
        <time>2022-08-27T16:20:56Z</time>
      </trkpt>
      <trkpt lat="44.48299" lon="4.10175">
        <ele>447</ele>
        <time>2022-08-27T16:21:12Z</time>
      </trkpt>
      <trkpt lat="44.48309" lon="4.10156">
        <ele>445</ele>
        <time>2022-08-27T16:21:34Z</time>
      </trkpt>
      <trkpt lat="44.48283" lon="4.10157">
        <ele>437</ele>
        <time>2022-08-27T16:22:09Z</time>
      </trkpt>
      <trkpt lat="44.48278" lon="4.10151">
        <ele>434</ele>
        <time>2022-08-27T16:22:18Z</time>
      </trkpt>
      <trkpt lat="44.4828" lon="4.10141">
        <ele>432</ele>
        <time>2022-08-27T16:22:28Z</time>
      </trkpt>
      <trkpt lat="44.48277" lon="4.10136">
        <ele>430</ele>
        <time>2022-08-27T16:22:34Z</time>
      </trkpt>
      <trkpt lat="44.48266" lon="4.10135">
        <ele>426</ele>
        <time>2022-08-27T16:22:48Z</time>
      </trkpt>
      <trkpt lat="44.4826" lon="4.10132">
        <ele>424</ele>
        <time>2022-08-27T16:22:57Z</time>
      </trkpt>
      <trkpt lat="44.4827" lon="4.10106">
        <ele>420</ele>
        <time>2022-08-27T16:23:25Z</time>
      </trkpt>
      <trkpt lat="44.48274" lon="4.101">
        <ele>419</ele>
        <time>2022-08-27T16:23:33Z</time>
      </trkpt>
      <trkpt lat="44.48279" lon="4.10102">
        <ele>421</ele>
        <time>2022-08-27T16:23:40Z</time>
      </trkpt>
      <trkpt lat="44.48282" lon="4.10098">
        <ele>420</ele>
        <time>2022-08-27T16:23:45Z</time>
      </trkpt>
      <trkpt lat="44.48276" lon="4.10095">
        <ele>418</ele>
        <time>2022-08-27T16:23:54Z</time>
      </trkpt>
      <trkpt lat="44.48261" lon="4.10095">
        <ele>414</ele>
        <time>2022-08-27T16:24:14Z</time>
      </trkpt>
      <trkpt lat="44.4825" lon="4.10098">
        <ele>413</ele>
        <time>2022-08-27T16:24:29Z</time>
      </trkpt>
      <trkpt lat="44.48238" lon="4.10096">
        <ele>408</ele>
        <time>2022-08-27T16:24:45Z</time>
      </trkpt>
      <trkpt lat="44.48238" lon="4.10088">
        <ele>407</ele>
        <time>2022-08-27T16:24:53Z</time>
      </trkpt>
      <trkpt lat="44.48243" lon="4.10073">
        <ele>405</ele>
        <time>2022-08-27T16:25:08Z</time>
      </trkpt>
      <trkpt lat="44.48238" lon="4.10075">
        <ele>404</ele>
        <time>2022-08-27T16:25:15Z</time>
      </trkpt>
      <trkpt lat="44.4823" lon="4.10073">
        <ele>402</ele>
        <time>2022-08-27T16:25:26Z</time>
      </trkpt>
      <trkpt lat="44.48235" lon="4.10063">
        <ele>401</ele>
        <time>2022-08-27T16:25:38Z</time>
      </trkpt>
      <trkpt lat="44.48217" lon="4.10067">
        <ele>397</ele>
        <time>2022-08-27T16:26:02Z</time>
      </trkpt>
      <trkpt lat="44.48212" lon="4.10073">
        <ele>397</ele>
        <time>2022-08-27T16:26:11Z</time>
      </trkpt>
      <trkpt lat="44.48207" lon="4.10093">
        <ele>398</ele>
        <time>2022-08-27T16:26:31Z</time>
      </trkpt>
      <trkpt lat="44.48206" lon="4.10123">
        <ele>402</ele>
        <time>2022-08-27T16:27:00Z</time>
      </trkpt>
      <trkpt lat="44.48201" lon="4.10154">
        <ele>404</ele>
        <time>2022-08-27T16:27:30Z</time>
      </trkpt>
      <trkpt lat="44.48198" lon="4.1016">
        <ele>403</ele>
        <time>2022-08-27T16:27:37Z</time>
      </trkpt>
      <trkpt lat="44.48195" lon="4.10198">
        <ele>407</ele>
        <time>2022-08-27T16:28:13Z</time>
      </trkpt>
      <trkpt lat="44.48183" lon="4.10234">
        <ele>407</ele>
        <time>2022-08-27T16:28:51Z</time>
      </trkpt>
      <trkpt lat="44.48141" lon="4.10274">
        <ele>399</ele>
        <time>2022-08-27T16:29:59Z</time>
      </trkpt>
      <trkpt lat="44.48102" lon="4.10328">
        <ele>394</ele>
        <time>2022-08-27T16:31:12Z</time>
      </trkpt>
      <trkpt lat="44.48093" lon="4.10334">
        <ele>391</ele>
        <time>2022-08-27T16:31:25Z</time>
      </trkpt>
      <trkpt lat="44.4809" lon="4.10339">
        <ele>391</ele>
        <time>2022-08-27T16:31:32Z</time>
      </trkpt>
      <trkpt lat="44.48086" lon="4.10342">
        <ele>391</ele>
        <time>2022-08-27T16:31:38Z</time>
      </trkpt>
      <trkpt lat="44.48081" lon="4.10339">
        <ele>388</ele>
        <time>2022-08-27T16:31:45Z</time>
      </trkpt>
      <trkpt lat="44.48067" lon="4.10352">
        <ele>390</ele>
        <time>2022-08-27T16:32:07Z</time>
      </trkpt>
      <trkpt lat="44.48043" lon="4.10356">
        <ele>386</ele>
        <time>2022-08-27T16:32:39Z</time>
      </trkpt>
      <trkpt lat="44.48035" lon="4.10367">
        <ele>387</ele>
        <time>2022-08-27T16:32:54Z</time>
      </trkpt>
      <trkpt lat="44.48006" lon="4.10385">
        <ele>384</ele>
        <time>2022-08-27T16:33:37Z</time>
      </trkpt>
      <trkpt lat="44.47974" lon="4.10427">
        <ele>384</ele>
        <time>2022-08-27T16:34:35Z</time>
      </trkpt>
      <trkpt lat="44.47953" lon="4.1045">
        <ele>383</ele>
        <time>2022-08-27T16:35:11Z</time>
      </trkpt>
      <trkpt lat="44.47934" lon="4.10461">
        <ele>378</ele>
        <time>2022-08-27T16:35:38Z</time>
      </trkpt>
      <trkpt lat="44.47927" lon="4.10468">
        <ele>377</ele>
        <time>2022-08-27T16:35:50Z</time>
      </trkpt>
      <trkpt lat="44.47918" lon="4.10469">
        <ele>373</ele>
        <time>2022-08-27T16:36:02Z</time>
      </trkpt>
      <trkpt lat="44.47914" lon="4.10477">
        <ele>374</ele>
        <time>2022-08-27T16:36:11Z</time>
      </trkpt>
      <trkpt lat="44.47909" lon="4.10479">
        <ele>373</ele>
        <time>2022-08-27T16:36:18Z</time>
      </trkpt>
      <trkpt lat="44.47905" lon="4.10477">
        <ele>373</ele>
        <time>2022-08-27T16:36:24Z</time>
      </trkpt>
      <trkpt lat="44.47899" lon="4.10481">
        <ele>373</ele>
        <time>2022-08-27T16:36:33Z</time>
      </trkpt>
      <trkpt lat="44.47882" lon="4.10505">
        <ele>371</ele>
        <time>2022-08-27T16:37:05Z</time>
      </trkpt>
      <trkpt lat="44.47878" lon="4.10517">
        <ele>371</ele>
        <time>2022-08-27T16:37:17Z</time>
      </trkpt>
      <trkpt lat="44.47869" lon="4.10531">
        <ele>369</ele>
        <time>2022-08-27T16:37:35Z</time>
      </trkpt>
      <trkpt lat="44.47862" lon="4.10536">
        <ele>368</ele>
        <time>2022-08-27T16:37:46Z</time>
      </trkpt>
      <trkpt lat="44.47859" lon="4.10553">
        <ele>367</ele>
        <time>2022-08-27T16:38:02Z</time>
      </trkpt>
      <trkpt lat="44.47839" lon="4.10558">
        <ele>363</ele>
        <time>2022-08-27T16:38:30Z</time>
      </trkpt>
      <trkpt lat="44.47835" lon="4.10556">
        <ele>363</ele>
        <time>2022-08-27T16:38:35Z</time>
      </trkpt>
      <trkpt lat="44.47828" lon="4.10557">
        <ele>363</ele>
        <time>2022-08-27T16:38:45Z</time>
      </trkpt>
      <trkpt lat="44.47821" lon="4.10583">
        <ele>361</ele>
        <time>2022-08-27T16:39:11Z</time>
      </trkpt>
      <trkpt lat="44.47814" lon="4.10591">
        <ele>363</ele>
        <time>2022-08-27T16:39:23Z</time>
      </trkpt>
      <trkpt lat="44.47803" lon="4.10614">
        <ele>367</ele>
        <time>2022-08-27T16:39:50Z</time>
      </trkpt>
      <trkpt lat="44.47788" lon="4.10666">
        <ele>373</ele>
        <time>2022-08-27T16:40:43Z</time>
      </trkpt>
      <trkpt lat="44.47792" lon="4.1065">
        <ele>372</ele>
        <time>2022-08-27T16:40:59Z</time>
      </trkpt>
      <trkpt lat="44.47797" lon="4.10649">
        <ele>373</ele>
        <time>2022-08-27T16:41:06Z</time>
      </trkpt>
      <trkpt lat="44.47808" lon="4.10638">
        <ele>373</ele>
        <time>2022-08-27T16:41:24Z</time>
      </trkpt>
      <trkpt lat="44.47817" lon="4.10635">
        <ele>374</ele>
        <time>2022-08-27T16:41:36Z</time>
      </trkpt>
      <trkpt lat="44.47821" lon="4.1063">
        <ele>373</ele>
        <time>2022-08-27T16:41:43Z</time>
      </trkpt>
      <trkpt lat="44.47827" lon="4.10629">
        <ele>374</ele>
        <time>2022-08-27T16:41:51Z</time>
      </trkpt>
      <trkpt lat="44.47822" lon="4.1066">
        <ele>381</ele>
        <time>2022-08-27T16:42:22Z</time>
      </trkpt>
      <trkpt lat="44.47822" lon="4.10677">
        <ele>386</ele>
        <time>2022-08-27T16:42:38Z</time>
      </trkpt>
      <trkpt lat="44.47832" lon="4.10661">
        <ele>384</ele>
        <time>2022-08-27T16:42:58Z</time>
      </trkpt>
      <trkpt lat="44.4785" lon="4.10652">
        <ele>381</ele>
        <time>2022-08-27T16:43:24Z</time>
      </trkpt>
      <trkpt lat="44.47861" lon="4.10665">
        <ele>384</ele>
        <time>2022-08-27T16:43:43Z</time>
      </trkpt>
      <trkpt lat="44.47855" lon="4.10678">
        <ele>388</ele>
        <time>2022-08-27T16:43:58Z</time>
      </trkpt>
      <trkpt lat="44.4788" lon="4.10699">
        <ele>393</ele>
        <time>2022-08-27T16:44:36Z</time>
      </trkpt>
      <trkpt lat="44.47915" lon="4.10738">
        <ele>404</ele>
        <time>2022-08-27T16:45:36Z</time>
      </trkpt>
      <trkpt lat="44.47924" lon="4.10761">
        <ele>411</ele>
        <time>2022-08-27T16:46:01Z</time>
      </trkpt>
      <trkpt lat="44.47953" lon="4.10769">
        <ele>409</ele>
        <time>2022-08-27T16:46:41Z</time>
      </trkpt>
      <trkpt lat="44.47957" lon="4.10772">
        <ele>410</ele>
        <time>2022-08-27T16:46:47Z</time>
      </trkpt>
      <trkpt lat="44.47965" lon="4.10787">
        <ele>413</ele>
        <time>2022-08-27T16:47:04Z</time>
      </trkpt>
      <trkpt lat="44.4796" lon="4.10788">
        <ele>414</ele>
        <time>2022-08-27T16:47:11Z</time>
      </trkpt>
      <trkpt lat="44.47956" lon="4.10792">
        <ele>416</ele>
        <time>2022-08-27T16:47:18Z</time>
      </trkpt>
      <trkpt lat="44.47961" lon="4.10794">
        <ele>416</ele>
        <time>2022-08-27T16:47:25Z</time>
      </trkpt>
      <trkpt lat="44.47972" lon="4.1081">
        <ele>418</ele>
        <time>2022-08-27T16:47:46Z</time>
      </trkpt>
      <trkpt lat="44.47962" lon="4.10816">
        <ele>422</ele>
        <time>2022-08-27T16:48:00Z</time>
      </trkpt>
      <trkpt lat="44.47945" lon="4.10814">
        <ele>424</ele>
        <time>2022-08-27T16:48:23Z</time>
      </trkpt>
      <trkpt lat="44.47939" lon="4.10811">
        <ele>424</ele>
        <time>2022-08-27T16:48:32Z</time>
      </trkpt>
      <trkpt lat="44.47924" lon="4.10813">
        <ele>427</ele>
        <time>2022-08-27T16:48:52Z</time>
      </trkpt>
      <trkpt lat="44.47914" lon="4.1081">
        <ele>427</ele>
        <time>2022-08-27T16:49:05Z</time>
      </trkpt>
      <trkpt lat="44.47909" lon="4.10805">
        <ele>426</ele>
        <time>2022-08-27T16:49:14Z</time>
      </trkpt>
      <trkpt lat="44.47899" lon="4.10801">
        <ele>424</ele>
        <time>2022-08-27T16:49:27Z</time>
      </trkpt>
      <trkpt lat="44.4788" lon="4.10802">
        <ele>424</ele>
        <time>2022-08-27T16:49:53Z</time>
      </trkpt>
      <trkpt lat="44.47876" lon="4.10807">
        <ele>426</ele>
        <time>2022-08-27T16:50:00Z</time>
      </trkpt>
      <trkpt lat="44.47888" lon="4.10812">
        <ele>427</ele>
        <time>2022-08-27T16:50:17Z</time>
      </trkpt>
      <trkpt lat="44.47879" lon="4.10823">
        <ele>431</ele>
        <time>2022-08-27T16:50:33Z</time>
      </trkpt>
      <trkpt lat="44.47881" lon="4.10827">
        <ele>432</ele>
        <time>2022-08-27T16:50:37Z</time>
      </trkpt>
      <trkpt lat="44.47928" lon="4.10868">
        <ele>444</ele>
        <time>2022-08-27T16:51:51Z</time>
      </trkpt>
      <trkpt lat="44.47933" lon="4.10879">
        <ele>447</ele>
        <time>2022-08-27T16:52:04Z</time>
      </trkpt>
      <trkpt lat="44.47976" lon="4.10924">
        <ele>459</ele>
        <time>2022-08-27T16:53:15Z</time>
      </trkpt>
      <trkpt lat="44.48013" lon="4.10956">
        <ele>462</ele>
        <time>2022-08-27T16:54:13Z</time>
      </trkpt>
      <trkpt lat="44.48016" lon="4.10962">
        <ele>463</ele>
        <time>2022-08-27T16:54:20Z</time>
      </trkpt>
      <trkpt lat="44.48014" lon="4.10964">
        <ele>464</ele>
        <time>2022-08-27T16:54:23Z</time>
      </trkpt>
      <trkpt lat="44.48019" lon="4.10967">
        <ele>464</ele>
        <time>2022-08-27T16:54:31Z</time>
      </trkpt>
      <trkpt lat="44.48051" lon="4.10953">
        <ele>460</ele>
        <time>2022-08-27T16:55:15Z</time>
      </trkpt>
      <trkpt lat="44.48057" lon="4.10953">
        <ele>459</ele>
        <time>2022-08-27T16:55:23Z</time>
      </trkpt>
      <trkpt lat="44.48069" lon="4.10961">
        <ele>461</ele>
        <time>2022-08-27T16:55:41Z</time>
      </trkpt>
      <trkpt lat="44.48077" lon="4.1097">
        <ele>463</ele>
        <time>2022-08-27T16:55:55Z</time>
      </trkpt>
      <trkpt lat="44.48097" lon="4.10977">
        <ele>466</ele>
        <time>2022-08-27T16:56:22Z</time>
      </trkpt>
      <trkpt lat="44.481" lon="4.10981">
        <ele>468</ele>
        <time>2022-08-27T16:56:28Z</time>
      </trkpt>
      <trkpt lat="44.48109" lon="4.10981">
        <ele>469</ele>
        <time>2022-08-27T16:56:40Z</time>
      </trkpt>
      <trkpt lat="44.48152" lon="4.10965">
        <ele>465</ele>
        <time>2022-08-27T16:57:39Z</time>
      </trkpt>
      <trkpt lat="44.4818" lon="4.1095">
        <ele>459</ele>
        <time>2022-08-27T16:58:19Z</time>
      </trkpt>
      <trkpt lat="44.4819" lon="4.10952">
        <ele>461</ele>
        <time>2022-08-27T16:58:33Z</time>
      </trkpt>
      <trkpt lat="44.48236" lon="4.10938">
        <ele>457</ele>
        <time>2022-08-27T16:59:36Z</time>
      </trkpt>
      <trkpt lat="44.48245" lon="4.10938">
        <ele>457</ele>
        <time>2022-08-27T16:59:48Z</time>
      </trkpt>
      <trkpt lat="44.48265" lon="4.10929">
        <ele>452</ele>
        <time>2022-08-27T17:00:16Z</time>
      </trkpt>
      <trkpt lat="44.48279" lon="4.10929">
        <ele>450</ele>
        <time>2022-08-27T17:00:34Z</time>
      </trkpt>
      <trkpt lat="44.48297" lon="4.10947">
        <ele>455</ele>
        <time>2022-08-27T17:01:04Z</time>
      </trkpt>
      <trkpt lat="44.4831" lon="4.10953">
        <ele>456</ele>
        <time>2022-08-27T17:01:22Z</time>
      </trkpt>
      <trkpt lat="44.48324" lon="4.10954">
        <ele>455</ele>
        <time>2022-08-27T17:01:41Z</time>
      </trkpt>
      <trkpt lat="44.48335" lon="4.10958">
        <ele>455</ele>
        <time>2022-08-27T17:01:56Z</time>
      </trkpt>
      <trkpt lat="44.48346" lon="4.10957">
        <ele>452</ele>
        <time>2022-08-27T17:02:11Z</time>
      </trkpt>
      <trkpt lat="44.48355" lon="4.1096">
        <ele>452</ele>
        <time>2022-08-27T17:02:23Z</time>
      </trkpt>
      <trkpt lat="44.48368" lon="4.10972">
        <ele>453</ele>
        <time>2022-08-27T17:02:44Z</time>
      </trkpt>
      <trkpt lat="44.48387" lon="4.10977">
        <ele>450</ele>
        <time>2022-08-27T17:03:10Z</time>
      </trkpt>
      <trkpt lat="44.48407" lon="4.10989">
        <ele>447</ele>
        <time>2022-08-27T17:03:39Z</time>
      </trkpt>
      <trkpt lat="44.48424" lon="4.11022">
        <ele>452</ele>
        <time>2022-08-27T17:04:17Z</time>
      </trkpt>
      <trkpt lat="44.48441" lon="4.11048">
        <ele>456</ele>
        <time>2022-08-27T17:04:51Z</time>
      </trkpt>
      <trkpt lat="44.48446" lon="4.11051">
        <ele>456</ele>
        <time>2022-08-27T17:04:58Z</time>
      </trkpt>
      <trkpt lat="44.48458" lon="4.11052">
        <ele>454</ele>
        <time>2022-08-27T17:05:14Z</time>
      </trkpt>
      <trkpt lat="44.4848" lon="4.11064">
        <ele>450</ele>
        <time>2022-08-27T17:05:46Z</time>
      </trkpt>
      <trkpt lat="44.48491" lon="4.11079">
        <ele>448</ele>
        <time>2022-08-27T17:06:06Z</time>
      </trkpt>
      <trkpt lat="44.48511" lon="4.11126">
        <ele>451</ele>
        <time>2022-08-27T17:06:58Z</time>
      </trkpt>
      <trkpt lat="44.48518" lon="4.11131">
        <ele>452</ele>
        <time>2022-08-27T17:07:09Z</time>
      </trkpt>
      <trkpt lat="44.48531" lon="4.1115">
        <ele>454</ele>
        <time>2022-08-27T17:07:34Z</time>
      </trkpt>
      <trkpt lat="44.48544" lon="4.11159">
        <ele>455</ele>
        <time>2022-08-27T17:07:53Z</time>
      </trkpt>
      <trkpt lat="44.4855" lon="4.11151">
        <ele>457</ele>
        <time>2022-08-27T17:08:04Z</time>
      </trkpt>
      <trkpt lat="44.48536" lon="4.1114">
        <ele>455</ele>
        <time>2022-08-27T17:08:26Z</time>
      </trkpt>
      <trkpt lat="44.48533" lon="4.11124">
        <ele>455</ele>
        <time>2022-08-27T17:08:41Z</time>
      </trkpt>
      <trkpt lat="44.48535" lon="4.11094">
        <ele>456</ele>
        <time>2022-08-27T17:09:10Z</time>
      </trkpt>
      <trkpt lat="44.48538" lon="4.11083">
        <ele>457</ele>
        <time>2022-08-27T17:09:21Z</time>
      </trkpt>
      <trkpt lat="44.48529" lon="4.11013">
        <ele>458</ele>
        <time>2022-08-27T17:10:29Z</time>
      </trkpt>
      <trkpt lat="44.48551" lon="4.11015">
        <ele>467</ele>
        <time>2022-08-27T17:10:58Z</time>
      </trkpt>
      <trkpt lat="44.48555" lon="4.1101">
        <ele>469</ele>
        <time>2022-08-27T17:11:06Z</time>
      </trkpt>
      <trkpt lat="44.48549" lon="4.11008">
        <ele>467</ele>
        <time>2022-08-27T17:11:14Z</time>
      </trkpt>
      <trkpt lat="44.48546" lon="4.10988">
        <ele>467</ele>
        <time>2022-08-27T17:11:33Z</time>
      </trkpt>
      <trkpt lat="44.48548" lon="4.10979">
        <ele>468</ele>
        <time>2022-08-27T17:11:42Z</time>
      </trkpt>
      <trkpt lat="44.48573" lon="4.10969">
        <ele>479</ele>
        <time>2022-08-27T17:12:17Z</time>
      </trkpt>
      <trkpt lat="44.48584" lon="4.10968">
        <ele>484</ele>
        <time>2022-08-27T17:12:32Z</time>
      </trkpt>
      <trkpt lat="44.48589" lon="4.1096">
        <ele>486</ele>
        <time>2022-08-27T17:12:42Z</time>
      </trkpt>
      <trkpt lat="44.48594" lon="4.10961">
        <ele>488</ele>
        <time>2022-08-27T17:12:49Z</time>
      </trkpt>
      <trkpt lat="44.48603" lon="4.10969">
        <ele>492</ele>
        <time>2022-08-27T17:13:03Z</time>
      </trkpt>
      <trkpt lat="44.48611" lon="4.10986">
        <ele>494</ele>
        <time>2022-08-27T17:13:22Z</time>
      </trkpt>
      <trkpt lat="44.48611" lon="4.10972">
        <ele>495</ele>
        <time>2022-08-27T17:13:35Z</time>
      </trkpt>
      <trkpt lat="44.48627" lon="4.10932">
        <ele>504</ele>
        <time>2022-08-27T17:14:19Z</time>
      </trkpt>
      <trkpt lat="44.48627" lon="4.10925">
        <ele>504</ele>
        <time>2022-08-27T17:14:26Z</time>
      </trkpt>
      <trkpt lat="44.48646" lon="4.10896">
        <ele>514</ele>
        <time>2022-08-27T17:15:03Z</time>
      </trkpt>
      <trkpt lat="44.48643" lon="4.10876">
        <ele>515</ele>
        <time>2022-08-27T17:15:23Z</time>
      </trkpt>
      <trkpt lat="44.48644" lon="4.10831">
        <ele>518</ele>
        <time>2022-08-27T17:16:06Z</time>
      </trkpt>
      <trkpt lat="44.48641" lon="4.10811">
        <ele>519</ele>
        <time>2022-08-27T17:16:25Z</time>
      </trkpt>
      <trkpt lat="44.48647" lon="4.108">
        <ele>523</ele>
        <time>2022-08-27T17:16:38Z</time>
      </trkpt>
      <trkpt lat="44.48649" lon="4.10787">
        <ele>525</ele>
        <time>2022-08-27T17:16:51Z</time>
      </trkpt>
      <trkpt lat="44.48667" lon="4.10795">
        <ele>531</ele>
        <time>2022-08-27T17:17:16Z</time>
      </trkpt>
      <trkpt lat="44.48668" lon="4.10801">
        <ele>531</ele>
        <time>2022-08-27T17:17:22Z</time>
      </trkpt>
      <trkpt lat="44.48673" lon="4.10803">
        <ele>533</ele>
        <time>2022-08-27T17:17:29Z</time>
      </trkpt>
      <trkpt lat="44.48692" lon="4.10832">
        <ele>537</ele>
        <time>2022-08-27T17:18:06Z</time>
      </trkpt>
      <trkpt lat="44.48693" lon="4.10837">
        <ele>537</ele>
        <time>2022-08-27T17:18:11Z</time>
      </trkpt>
      <trkpt lat="44.48713" lon="4.10864">
        <ele>540</ele>
        <time>2022-08-27T17:18:48Z</time>
      </trkpt>
      <trkpt lat="44.48716" lon="4.10873">
        <ele>540</ele>
        <time>2022-08-27T17:18:58Z</time>
      </trkpt>
      <trkpt lat="44.48731" lon="4.10887">
        <ele>542</ele>
        <time>2022-08-27T17:19:22Z</time>
      </trkpt>
      <trkpt lat="44.48739" lon="4.10878">
        <ele>546</ele>
        <time>2022-08-27T17:19:36Z</time>
      </trkpt>
      <trkpt lat="44.4874" lon="4.10872">
        <ele>548</ele>
        <time>2022-08-27T17:19:41Z</time>
      </trkpt>
      <trkpt lat="44.48745" lon="4.10873">
        <ele>549</ele>
        <time>2022-08-27T17:19:48Z</time>
      </trkpt>
      <trkpt lat="44.48748" lon="4.10865">
        <ele>551</ele>
        <time>2022-08-27T17:19:57Z</time>
      </trkpt>
      <trkpt lat="44.48744" lon="4.10861">
        <ele>551</ele>
        <time>2022-08-27T17:20:03Z</time>
      </trkpt>
      <trkpt lat="44.4875" lon="4.10824">
        <ele>559</ele>
        <time>2022-08-27T17:20:39Z</time>
      </trkpt>
      <trkpt lat="44.48748" lon="4.10817">
        <ele>559</ele>
        <time>2022-08-27T17:20:47Z</time>
      </trkpt>
      <trkpt lat="44.4875" lon="4.10809">
        <ele>560</ele>
        <time>2022-08-27T17:20:55Z</time>
      </trkpt>
      <trkpt lat="44.48758" lon="4.10804">
        <ele>562</ele>
        <time>2022-08-27T17:21:06Z</time>
      </trkpt>
      <trkpt lat="44.4876" lon="4.10771">
        <ele>566</ele>
        <time>2022-08-27T17:21:38Z</time>
      </trkpt>
      <trkpt lat="44.48758" lon="4.10738">
        <ele>568</ele>
        <time>2022-08-27T17:22:09Z</time>
      </trkpt>
      <trkpt lat="44.48761" lon="4.10727">
        <ele>569</ele>
        <time>2022-08-27T17:22:21Z</time>
      </trkpt>
      <trkpt lat="44.48777" lon="4.10711">
        <ele>575</ele>
        <time>2022-08-27T17:22:47Z</time>
      </trkpt>
      <trkpt lat="44.4878" lon="4.10702">
        <ele>576</ele>
        <time>2022-08-27T17:22:56Z</time>
      </trkpt>
      <trkpt lat="44.48786" lon="4.10697">
        <ele>579</ele>
        <time>2022-08-27T17:23:06Z</time>
      </trkpt>
      <trkpt lat="44.48792" lon="4.10685">
        <ele>581</ele>
        <time>2022-08-27T17:23:20Z</time>
      </trkpt>
      <trkpt lat="44.48799" lon="4.10666">
        <ele>586</ele>
        <time>2022-08-27T17:23:40Z</time>
      </trkpt>
      <trkpt lat="44.48799" lon="4.10658">
        <ele>587</ele>
        <time>2022-08-27T17:23:48Z</time>
      </trkpt>
      <trkpt lat="44.48804" lon="4.10642">
        <ele>590</ele>
        <time>2022-08-27T17:24:04Z</time>
      </trkpt>
      <trkpt lat="44.48802" lon="4.10583">
        <ele>595</ele>
        <time>2022-08-27T17:25:00Z</time>
      </trkpt>
      <trkpt lat="44.48793" lon="4.10565">
        <ele>595</ele>
        <time>2022-08-27T17:25:21Z</time>
      </trkpt>
      <trkpt lat="44.48792" lon="4.1055">
        <ele>596</ele>
        <time>2022-08-27T17:25:36Z</time>
      </trkpt>
      <trkpt lat="44.48789" lon="4.10542">
        <ele>596</ele>
        <time>2022-08-27T17:25:44Z</time>
      </trkpt>
      <trkpt lat="44.48808" lon="4.10544">
        <ele>603</ele>
        <time>2022-08-27T17:26:10Z</time>
      </trkpt>
      <trkpt lat="44.48818" lon="4.1056">
        <ele>605</ele>
        <time>2022-08-27T17:26:30Z</time>
      </trkpt>
      <trkpt lat="44.48817" lon="4.10539">
        <ele>607</ele>
        <time>2022-08-27T17:26:50Z</time>
      </trkpt>
      <trkpt lat="44.48806" lon="4.10506">
        <ele>608</ele>
        <time>2022-08-27T17:27:25Z</time>
      </trkpt>
      <trkpt lat="44.488" lon="4.10477">
        <ele>608</ele>
        <time>2022-08-27T17:27:53Z</time>
      </trkpt>
      <trkpt lat="44.48789" lon="4.10457">
        <ele>605</ele>
        <time>2022-08-27T17:28:18Z</time>
      </trkpt>
      <trkpt lat="44.48785" lon="4.10436">
        <ele>605</ele>
        <time>2022-08-27T17:28:38Z</time>
      </trkpt>
    </trkseg>
  </trk>
</gpx>